Time,TemperatureF,DewpointF,PressureIn,WindDirection,WindDirectionDegrees,WindSpeedMPH,WindSpeedGustMPH,Humidity,HourlyPrecipIn,Conditions,Clouds,dailyrainin,SoftwareType,DateUTC
2013-10-29 00:01:00,40.5,35.1,29.87,NNE,21,2.0,2.0,81,0.00,,CLR,0.00,VWS V14.01,2013-10-29 07:01:00,
2013-10-29 00:02:00,40.3,34.9,29.87,NNE,21,2.0,2.0,81,0.00,,CLR,0.00,VWS V14.01,2013-10-29 07:02:00,
2013-10-29 00:03:00,40.3,34.9,29.87,NNE,21,1.0,2.0,81,0.00,,CLR,0.00,VWS V14.01,2013-10-29 07:03:00,
2013-10-29 00:07:00,40.3,35.2,29.87,NNE,21,2.0,2.0,82,0.00,,CLR,0.00,VWS V14.01,2013-10-29 07:07:00,
2013-10-29 00:08:00,40.3,35.2,29.87,NNE,21,1.0,2.0,82,0.00,,CLR,0.00,VWS V14.01,2013-10-29 07:08:00,
2013-10-29 00:10:00,40.3,35.2,29.87,NNE,21,1.0,2.0,82,0.00,,CLR,0.00,VWS V14.01,2013-10-29 07:10:00,
2013-10-29 00:11:00,40.3,35.2,29.87,NNE,21,1.0,2.0,82,0.00,,CLR,0.00,VWS V14.01,2013-10-29 07:11:00,
2013-10-29 00:12:00,40.3,35.2,29.87,NNE,21,1.0,2.0,82,0.00,,CLR,0.00,VWS V14.01,2013-10-29 07:12:00,
2013-10-29 00:14:00,40.2,35.2,29.87,NNE,21,2.0,2.0,82,0.00,,CLR,0.00,VWS V14.01,2013-10-29 07:14:00,
2013-10-29 00:16:00,40.2,35.2,29.87,NNE,21,1.0,2.0,82,0.00,,CLR,0.00,VWS V14.01,2013-10-29 07:16:00,
2013-10-29 00:18:00,40.2,35.2,29.87,NNE,21,2.0,3.0,82,0.00,,CLR,0.00,VWS V14.01,2013-10-29 07:18:00,
2013-10-29 00:21:00,40.1,35.1,29.87,NNE,21,2.0,3.0,82,0.00,,CLR,0.00,VWS V14.01,2013-10-29 07:21:00,
2013-10-29 00:23:00,40.1,35.1,29.87,NNE,21,2.0,2.0,82,0.00,,CLR,0.00,VWS V14.01,2013-10-29 07:23:00,
2013-10-29 00:25:00,40.1,34.8,29.87,NNE,21,2.0,2.0,81,0.00,,CLR,0.00,VWS V14.01,2013-10-29 07:25:00,
2013-10-29 00:26:00,40.1,34.8,29.87,NNE,21,2.0,2.0,81,0.00,,CLR,0.00,VWS V14.01,2013-10-29 07:26:00,
2013-10-29 00:27:00,40.1,34.8,29.87,NNE,21,1.0,2.0,81,0.00,,CLR,0.00,VWS V14.01,2013-10-29 07:27:00,
2013-10-29 00:28:00,40.1,34.8,29.87,NNE,21,2.0,2.0,81,0.00,,CLR,0.00,VWS V14.01,2013-10-29 07:28:00,
2013-10-29 00:31:00,39.9,34.5,29.87,NNE,21,2.0,2.0,81,0.00,,CLR,0.00,VWS V14.01,2013-10-29 07:31:00,
2013-10-29 00:32:00,39.8,34.5,29.87,NNE,21,0.0,2.0,81,0.00,,CLR,0.00,VWS V14.01,2013-10-29 07:32:00,
2013-10-29 00:33:00,39.8,34.5,29.87,NNE,21,0.0,2.0,81,0.00,,CLR,0.00,VWS V14.01,2013-10-29 07:33:00,
2013-10-29 00:34:00,39.6,34.6,29.87,NNE,21,0.0,2.0,82,0.00,,CLR,0.00,VWS V14.01,2013-10-29 07:34:00,
2013-10-29 00:36:00,39.6,34.6,29.87,NNE,21,0.0,0.0,82,0.00,,CLR,0.00,VWS V14.01,2013-10-29 07:36:00,
2013-10-29 00:38:00,39.5,34.5,29.87,NNE,21,0.0,0.0,82,0.00,,CLR,0.00,VWS V14.01,2013-10-29 07:38:00,
2013-10-29 00:40:00,39.3,34.3,29.87,NNE,21,0.0,0.0,82,0.00,,CLR,0.00,VWS V14.01,2013-10-29 07:40:00,
2013-10-29 00:41:00,39.3,34.3,29.87,NNE,21,0.0,0.0,82,0.00,,CLR,0.00,VWS V14.01,2013-10-29 07:41:00,
2013-10-29 00:42:00,39.2,34.2,29.87,NNE,21,0.0,0.0,82,0.00,,CLR,0.00,VWS V14.01,2013-10-29 07:42:00,
2013-10-29 00:45:00,39.1,34.4,29.87,NNE,21,1.0,2.0,83,0.00,,CLR,0.00,VWS V14.01,2013-10-29 07:45:00,
2013-10-29 00:46:00,39.1,34.4,29.87,NNE,21,2.0,2.0,83,0.00,,CLR,0.00,VWS V14.01,2013-10-29 07:46:00,
2013-10-29 00:51:00,38.8,34.4,29.87,NNE,21,1.0,2.0,84,0.00,,CLR,0.00,VWS V14.01,2013-10-29 07:51:00,
2013-10-29 00:53:00,38.8,34.4,29.87,NNE,21,1.0,2.0,84,0.00,,CLR,0.00,VWS V14.01,2013-10-29 07:53:00,
2013-10-29 00:54:00,38.8,34.4,29.87,NNE,21,1.0,2.0,84,0.00,,CLR,0.00,VWS V14.01,2013-10-29 07:54:00,
2013-10-29 00:57:00,38.8,34.4,29.87,NNE,21,2.0,2.0,84,0.00,,CLR,0.00,VWS V14.01,2013-10-29 07:57:00,
2013-10-29 00:58:00,38.8,34.4,29.87,NNE,21,0.0,2.0,84,0.00,,CLR,0.00,VWS V14.01,2013-10-29 07:58:00,
2013-10-29 01:00:00,38.8,34.4,29.87,NNE,21,0.0,2.0,84,0.00,,CLR,0.00,VWS V14.01,2013-10-29 08:00:00,
2013-10-29 01:03:00,38.8,34.4,29.87,NNE,21,0.0,0.0,84,0.00,,CLR,0.00,VWS V14.01,2013-10-29 08:03:00,
2013-10-29 01:05:00,38.8,34.7,29.87,NNE,21,0.0,0.0,85,0.00,,CLR,0.00,VWS V14.01,2013-10-29 08:05:00,
2013-10-29 01:08:00,38.8,34.7,29.87,NNE,21,2.0,2.0,85,0.00,,CLR,0.00,VWS V14.01,2013-10-29 08:08:00,
2013-10-29 01:09:00,38.9,34.8,29.87,NNE,21,2.0,2.0,85,0.00,,CLR,0.00,VWS V14.01,2013-10-29 08:09:00,
2013-10-29 01:10:00,38.9,34.8,29.87,NNE,21,2.0,2.0,85,0.00,,CLR,0.00,VWS V14.01,2013-10-29 08:10:00,
2013-10-29 01:13:00,38.9,34.8,29.87,NNE,21,1.0,2.0,85,0.00,,CLR,0.00,VWS V14.01,2013-10-29 08:13:00,
2013-10-29 01:14:00,38.9,34.8,29.87,NNE,21,1.0,2.0,85,0.00,,CLR,0.00,VWS V14.01,2013-10-29 08:14:00,
2013-10-29 01:16:00,38.8,34.7,29.87,NNE,21,1.0,2.0,85,0.00,,CLR,0.00,VWS V14.01,2013-10-29 08:16:00,
2013-10-29 01:18:00,38.8,34.7,29.87,NNE,21,0.0,2.0,85,0.00,,CLR,0.00,VWS V14.01,2013-10-29 08:18:00,
2013-10-29 01:20:00,38.8,34.7,29.87,NNE,21,0.0,2.0,85,0.00,,CLR,0.00,VWS V14.01,2013-10-29 08:20:00,
2013-10-29 01:21:00,38.8,34.7,29.87,NNE,21,0.0,2.0,85,0.00,,CLR,0.00,VWS V14.01,2013-10-29 08:21:00,
2013-10-29 01:22:00,38.8,34.7,29.87,NNE,21,0.0,0.0,85,0.00,,CLR,0.00,VWS V14.01,2013-10-29 08:22:00,
2013-10-29 01:23:00,38.8,34.7,29.87,NNE,21,0.0,1.0,85,0.00,,CLR,0.00,VWS V14.01,2013-10-29 08:23:00,
2013-10-29 01:26:00,38.6,34.5,29.87,NNE,21,0.0,0.0,85,0.00,,CLR,0.00,VWS V14.01,2013-10-29 08:26:00,
2013-10-29 01:28:00,38.6,34.5,29.87,NNE,21,0.0,0.0,85,0.00,,CLR,0.00,VWS V14.01,2013-10-29 08:28:00,
2013-10-29 01:29:00,38.6,34.8,29.87,NNE,21,0.0,1.0,86,0.00,,CLR,0.00,VWS V14.01,2013-10-29 08:29:00,
2013-10-29 01:30:00,38.6,34.8,29.88,NNE,21,1.0,1.0,86,0.00,,CLR,0.00,VWS V14.01,2013-10-29 08:30:00,
2013-10-29 01:33:00,38.5,34.7,29.88,NNE,21,1.0,2.0,86,0.00,,CLR,0.00,VWS V14.01,2013-10-29 08:33:00,
2013-10-29 01:36:00,38.5,34.7,29.88,NNE,21,2.0,3.0,86,0.00,,CLR,0.00,VWS V14.01,2013-10-29 08:36:00,
2013-10-29 01:38:00,38.3,34.8,29.88,NNE,21,1.0,2.0,87,0.00,,CLR,0.00,VWS V14.01,2013-10-29 08:38:00,
2013-10-29 01:39:00,38.3,34.8,29.88,NNE,21,0.0,2.0,87,0.00,,CLR,0.00,VWS V14.01,2013-10-29 08:39:00,
2013-10-29 01:42:00,38.3,34.8,29.88,NNE,21,0.0,0.0,87,0.00,,CLR,0.00,VWS V14.01,2013-10-29 08:42:00,
2013-10-29 01:43:00,38.3,34.8,29.88,NNE,21,0.0,0.0,87,0.00,,CLR,0.00,VWS V14.01,2013-10-29 08:43:00,
2013-10-29 01:44:00,38.2,34.7,29.88,NNE,21,0.0,0.0,87,0.00,,CLR,0.00,VWS V14.01,2013-10-29 08:44:00,
2013-10-29 01:49:00,38.2,35.0,29.88,NNE,21,0.0,1.0,88,0.00,,CLR,0.00,VWS V14.01,2013-10-29 08:49:00,
2013-10-29 01:50:00,38.2,35.0,29.88,NNE,21,0.0,1.0,88,0.00,,CLR,0.00,VWS V14.01,2013-10-29 08:50:00,
2013-10-29 01:51:00,38.2,35.0,29.88,NNE,21,0.0,1.0,88,0.00,,CLR,0.00,VWS V14.01,2013-10-29 08:51:00,
2013-10-29 01:55:00,38.0,34.8,29.88,NNE,21,0.0,0.0,88,0.00,,CLR,0.00,VWS V14.01,2013-10-29 08:55:00,
2013-10-29 01:59:00,37.9,34.7,29.88,NNE,21,0.0,0.0,88,0.00,,CLR,0.00,VWS V14.01,2013-10-29 08:59:00,
2013-10-29 02:00:00,37.9,34.7,29.88,NNE,21,0.0,0.0,88,0.00,,CLR,0.00,VWS V14.01,2013-10-29 09:00:00,
2013-10-29 02:01:00,37.9,34.7,29.88,NNE,21,0.0,0.0,88,0.00,,CLR,0.00,VWS V14.01,2013-10-29 09:01:00,
2013-10-29 02:06:00,37.6,34.1,29.88,NNE,21,0.0,0.0,87,0.00,,CLR,0.00,VWS V14.01,2013-10-29 09:06:00,
2013-10-29 02:08:00,37.5,34.3,29.88,NNE,21,0.0,0.0,88,0.00,,CLR,0.00,VWS V14.01,2013-10-29 09:08:00,
2013-10-29 02:09:00,37.5,34.3,29.88,NNE,21,0.0,0.0,88,0.00,,CLR,0.00,VWS V14.01,2013-10-29 09:09:00,
2013-10-29 02:10:00,37.5,34.3,29.88,NNE,21,0.0,0.0,88,0.00,,CLR,0.00,VWS V14.01,2013-10-29 09:10:00,
2013-10-29 02:13:00,37.3,34.1,29.88,NNE,21,0.0,0.0,88,0.00,,CLR,0.00,VWS V14.01,2013-10-29 09:13:00,
2013-10-29 02:14:00,37.3,34.1,29.88,NNE,21,0.0,0.0,88,0.00,,CLR,0.00,VWS V14.01,2013-10-29 09:14:00,
2013-10-29 02:15:00,37.3,34.1,29.88,NNE,21,0.0,0.0,88,0.00,,CLR,0.00,VWS V14.01,2013-10-29 09:15:00,
2013-10-29 02:16:00,37.3,34.1,29.88,NNE,21,0.0,0.0,88,0.00,,CLR,0.00,VWS V14.01,2013-10-29 09:16:00,
2013-10-29 02:19:00,37.3,34.4,29.88,NNE,21,0.0,0.0,89,0.00,,CLR,0.00,VWS V14.01,2013-10-29 09:19:00,
2013-10-29 02:21:00,37.3,34.4,29.88,NNE,21,0.0,0.0,89,0.00,,CLR,0.00,VWS V14.01,2013-10-29 09:21:00,
2013-10-29 02:23:00,37.3,34.4,29.88,NNE,21,0.0,0.0,89,0.00,,CLR,0.00,VWS V14.01,2013-10-29 09:23:00,
2013-10-29 02:24:00,37.3,34.4,29.88,NNE,21,0.0,0.0,89,0.00,,CLR,0.00,VWS V14.01,2013-10-29 09:24:00,
2013-10-29 02:26:00,37.3,34.4,29.88,NNE,21,0.0,0.0,89,0.00,,CLR,0.00,VWS V14.01,2013-10-29 09:26:00,
2013-10-29 02:28:00,37.3,34.4,29.88,NNE,21,0.0,0.0,89,0.00,,CLR,0.00,VWS V14.01,2013-10-29 09:28:00,
2013-10-29 02:29:00,37.3,34.4,29.88,NNE,21,0.0,0.0,89,0.00,,CLR,0.00,VWS V14.01,2013-10-29 09:29:00,
2013-10-29 02:30:00,37.5,34.6,29.87,NNE,21,0.0,0.0,89,0.00,,CLR,0.00,VWS V14.01,2013-10-29 09:30:00,
2013-10-29 02:31:00,37.5,34.6,29.87,NNE,21,0.0,0.0,89,0.00,,CLR,0.00,VWS V14.01,2013-10-29 09:31:00,
2013-10-29 02:34:00,37.5,34.6,29.87,NNE,21,0.0,0.0,89,0.00,,CLR,0.00,VWS V14.01,2013-10-29 09:34:00,
2013-10-29 02:36:00,37.5,34.6,29.87,NNE,21,0.0,0.0,89,0.00,,CLR,0.00,VWS V14.01,2013-10-29 09:36:00,
2013-10-29 02:37:00,37.5,34.6,29.87,NNE,21,0.0,0.0,89,0.00,,CLR,0.00,VWS V14.01,2013-10-29 09:37:00,
2013-10-29 02:39:00,37.5,34.6,29.87,NNE,21,0.0,0.0,89,0.00,,CLR,0.00,VWS V14.01,2013-10-29 09:39:00,
2013-10-29 02:40:00,37.5,34.6,29.87,NNE,21,0.0,0.0,89,0.00,,CLR,0.00,VWS V14.01,2013-10-29 09:40:00,
2013-10-29 02:42:00,37.5,34.6,29.87,NNE,21,0.0,0.0,89,0.00,,CLR,0.00,VWS V14.01,2013-10-29 09:42:00,
2013-10-29 02:44:00,37.5,34.6,29.87,NNE,21,0.0,0.0,89,0.00,,CLR,0.00,VWS V14.01,2013-10-29 09:44:00,
2013-10-29 02:45:00,37.5,34.6,29.87,NNE,21,0.0,0.0,89,0.00,,CLR,0.00,VWS V14.01,2013-10-29 09:45:00,
2013-10-29 02:46:00,37.5,34.6,29.87,NNE,21,0.0,0.0,89,0.00,,CLR,0.00,VWS V14.01,2013-10-29 09:46:00,
2013-10-29 02:47:00,37.5,34.6,29.87,NNE,21,0.0,0.0,89,0.00,,CLR,0.00,VWS V14.01,2013-10-29 09:47:00,
2013-10-29 02:52:00,37.3,34.4,29.87,NNE,21,0.0,0.0,89,0.00,,CLR,0.00,VWS V14.01,2013-10-29 09:52:00,
2013-10-29 02:53:00,37.3,34.4,29.87,NNE,21,0.0,0.0,89,0.00,,CLR,0.00,VWS V14.01,2013-10-29 09:53:00,
2013-10-29 02:54:00,37.3,34.4,29.87,NNE,21,0.0,0.0,89,0.00,,CLR,0.00,VWS V14.01,2013-10-29 09:54:00,
2013-10-29 02:56:00,37.3,34.4,29.87,NNE,21,0.0,0.0,89,0.00,,CLR,0.00,VWS V14.01,2013-10-29 09:56:00,
2013-10-29 03:00:00,37.3,34.4,29.87,NNE,21,0.0,0.0,89,0.00,,CLR,0.00,VWS V14.01,2013-10-29 10:00:00,
2013-10-29 03:01:00,37.3,34.4,29.87,NNE,21,0.0,0.0,89,0.00,,CLR,0.00,VWS V14.01,2013-10-29 10:01:00,
2013-10-29 03:03:00,37.2,34.3,29.87,NNE,21,0.0,0.0,89,0.00,,CLR,0.00,VWS V14.01,2013-10-29 10:03:00,
2013-10-29 03:06:00,37.2,34.3,29.87,NNE,21,0.0,0.0,89,0.00,,CLR,0.00,VWS V14.01,2013-10-29 10:06:00,
2013-10-29 03:07:00,37.0,33.8,29.87,NNE,21,0.0,0.0,88,0.00,,CLR,0.00,VWS V14.01,2013-10-29 10:07:00,
2013-10-29 03:10:00,37.0,34.1,29.87,NNE,21,0.0,0.0,89,0.00,,CLR,0.00,VWS V14.01,2013-10-29 10:10:00,
2013-10-29 03:11:00,37.0,34.1,29.87,NNE,21,0.0,0.0,89,0.00,,CLR,0.00,VWS V14.01,2013-10-29 10:11:00,
2013-10-29 03:16:00,36.9,34.0,29.88,NNE,21,0.0,0.0,89,0.00,,CLR,0.00,VWS V14.01,2013-10-29 10:16:00,
2013-10-29 03:17:00,36.9,34.0,29.88,NNE,21,0.0,0.0,89,0.00,,CLR,0.00,VWS V14.01,2013-10-29 10:17:00,
2013-10-29 03:18:00,36.9,34.0,29.88,NNE,21,0.0,0.0,89,0.00,,CLR,0.00,VWS V14.01,2013-10-29 10:18:00,
2013-10-29 03:21:00,36.9,34.0,29.88,NNE,21,0.0,0.0,89,0.00,,CLR,0.00,VWS V14.01,2013-10-29 10:21:00,
2013-10-29 03:28:00,36.8,33.6,29.88,NNE,21,0.0,0.0,88,0.00,,CLR,0.00,VWS V14.01,2013-10-29 10:28:00,
2013-10-29 03:29:00,36.8,33.6,29.88,NNE,21,0.0,0.0,88,0.00,,CLR,0.00,VWS V14.01,2013-10-29 10:29:00,
2013-10-29 03:31:00,36.6,33.4,29.88,NNE,21,0.0,0.0,88,0.00,,CLR,0.00,VWS V14.01,2013-10-29 10:31:00,
2013-10-29 03:32:00,36.6,33.4,29.88,NNE,21,0.0,0.0,88,0.00,,CLR,0.00,VWS V14.01,2013-10-29 10:32:00,
2013-10-29 03:34:00,36.6,33.4,29.88,NNE,21,0.0,0.0,88,0.00,,CLR,0.00,VWS V14.01,2013-10-29 10:34:00,
2013-10-29 03:35:00,36.6,33.7,29.88,NNE,21,0.0,0.0,89,0.00,,CLR,0.00,VWS V14.01,2013-10-29 10:35:00,
2013-10-29 03:37:00,36.5,33.6,29.88,NNE,21,0.0,0.0,89,0.00,,CLR,0.00,VWS V14.01,2013-10-29 10:37:00,
2013-10-29 03:40:00,36.5,33.6,29.88,NNE,21,0.0,1.0,89,0.00,,CLR,0.00,VWS V14.01,2013-10-29 10:40:00,
2013-10-29 03:41:00,36.5,33.6,29.88,NNE,21,0.0,1.0,89,0.00,,CLR,0.00,VWS V14.01,2013-10-29 10:41:00,
2013-10-29 03:44:00,36.5,33.6,29.88,NNE,21,0.0,0.0,89,0.00,,CLR,0.00,VWS V14.01,2013-10-29 10:44:00,
2013-10-29 03:45:00,36.5,33.6,29.88,NNE,21,0.0,0.0,89,0.00,,CLR,0.00,VWS V14.01,2013-10-29 10:45:00,
2013-10-29 03:46:00,36.3,33.4,29.88,NNE,21,0.0,0.0,89,0.00,,CLR,0.00,VWS V14.01,2013-10-29 10:46:00,
2013-10-29 03:50:00,36.3,33.4,29.88,NNE,21,0.0,0.0,89,0.00,,CLR,0.00,VWS V14.01,2013-10-29 10:50:00,
2013-10-29 03:51:00,36.3,33.4,29.88,NNE,21,0.0,0.0,89,0.00,,CLR,0.00,VWS V14.01,2013-10-29 10:51:00,
2013-10-29 03:52:00,36.5,33.6,29.88,NNE,21,0.0,0.0,89,0.00,,CLR,0.00,VWS V14.01,2013-10-29 10:52:00,
2013-10-29 03:55:00,36.5,33.6,29.88,NNE,21,0.0,0.0,89,0.00,,CLR,0.00,VWS V14.01,2013-10-29 10:55:00,
2013-10-29 03:57:00,36.5,33.6,29.88,NNE,21,0.0,0.0,89,0.00,,CLR,0.00,VWS V14.01,2013-10-29 10:57:00,
2013-10-29 03:58:00,36.5,33.3,29.88,NNE,21,0.0,0.0,88,0.00,,CLR,0.00,VWS V14.01,2013-10-29 10:58:00,
2013-10-29 04:00:00,36.5,33.3,29.87,NNE,21,0.0,0.0,88,0.00,,CLR,0.00,VWS V14.01,2013-10-29 11:00:00,
2013-10-29 04:01:00,36.5,33.3,29.87,NNE,21,0.0,0.0,88,0.00,,CLR,0.00,VWS V14.01,2013-10-29 11:01:00,
2013-10-29 04:05:00,36.5,33.3,29.87,NNE,20,0.0,0.0,88,0.00,,CLR,0.00,VWS V14.01,2013-10-29 11:05:00,
2013-10-29 04:06:00,36.5,33.3,29.87,NNE,21,0.0,0.0,88,0.00,,CLR,0.00,VWS V14.01,2013-10-29 11:06:00,
2013-10-29 04:07:00,36.5,33.3,29.87,NNE,21,0.0,0.0,88,0.00,,CLR,0.00,VWS V14.01,2013-10-29 11:07:00,
2013-10-29 04:10:00,36.5,33.3,29.87,NNE,21,0.0,0.0,88,0.00,,CLR,0.00,VWS V14.01,2013-10-29 11:10:00,
2013-10-29 04:11:00,36.5,33.0,29.87,NNE,21,0.0,0.0,87,0.00,,CLR,0.00,VWS V14.01,2013-10-29 11:11:00,
2013-10-29 04:14:00,36.5,33.0,29.87,NNE,21,0.0,0.0,87,0.00,,CLR,0.00,VWS V14.01,2013-10-29 11:14:00,
2013-10-29 04:15:00,36.5,33.0,29.87,NNE,21,0.0,0.0,87,0.00,,CLR,0.00,VWS V14.01,2013-10-29 11:15:00,
2013-10-29 04:16:00,36.5,33.0,29.87,NNE,21,0.0,0.0,87,0.00,,CLR,0.00,VWS V14.01,2013-10-29 11:16:00,
2013-10-29 04:18:00,36.5,33.0,29.87,NNE,21,0.0,0.0,87,0.00,,CLR,0.00,VWS V14.01,2013-10-29 11:18:00,
2013-10-29 04:19:00,36.5,33.0,29.87,NNE,21,0.0,0.0,87,0.00,,CLR,0.00,VWS V14.01,2013-10-29 11:19:00,
2013-10-29 04:21:00,36.5,33.0,29.87,NNE,21,0.0,0.0,87,0.00,,CLR,0.00,VWS V14.01,2013-10-29 11:21:00,
2013-10-29 04:22:00,36.5,33.0,29.87,NNE,21,0.0,0.0,87,0.00,,CLR,0.00,VWS V14.01,2013-10-29 11:22:00,
2013-10-29 04:24:00,36.5,33.0,29.87,NNE,21,0.0,0.0,87,0.00,,CLR,0.00,VWS V14.01,2013-10-29 11:24:00,
2013-10-29 04:26:00,36.5,33.0,29.87,NNE,21,0.0,0.0,87,0.00,,CLR,0.00,VWS V14.01,2013-10-29 11:26:00,
2013-10-29 04:27:00,36.5,33.0,29.87,NNE,21,0.0,0.0,87,0.00,,CLR,0.00,VWS V14.01,2013-10-29 11:27:00,
2013-10-29 04:29:00,36.5,33.0,29.87,NNE,21,0.0,0.0,87,0.00,,CLR,0.00,VWS V14.01,2013-10-29 11:29:00,
2013-10-29 04:31:00,36.5,32.7,29.88,NNE,21,0.0,0.0,86,0.00,,CLR,0.00,VWS V14.01,2013-10-29 11:31:00,
2013-10-29 04:32:00,36.5,32.7,29.88,NNE,21,0.0,0.0,86,0.00,,CLR,0.00,VWS V14.01,2013-10-29 11:32:00,
2013-10-29 04:33:00,36.5,32.7,29.88,NNE,21,0.0,0.0,86,0.00,,CLR,0.00,VWS V14.01,2013-10-29 11:33:00,
2013-10-29 04:35:00,36.5,32.7,29.88,NNE,21,0.0,0.0,86,0.00,,CLR,0.00,VWS V14.01,2013-10-29 11:35:00,
2013-10-29 04:37:00,36.5,32.7,29.88,NNE,21,2.0,2.0,86,0.00,,CLR,0.00,VWS V14.01,2013-10-29 11:37:00,
2013-10-29 04:39:00,36.5,32.7,29.88,NNE,21,1.0,2.0,86,0.00,,CLR,0.00,VWS V14.01,2013-10-29 11:39:00,
2013-10-29 04:40:00,36.5,32.7,29.88,NNE,21,1.0,2.0,86,0.00,,CLR,0.00,VWS V14.01,2013-10-29 11:40:00,
2013-10-29 04:43:00,36.3,32.5,29.88,NNE,21,0.0,0.0,86,0.00,,CLR,0.00,VWS V14.01,2013-10-29 11:43:00,
2013-10-29 04:44:00,36.3,32.5,29.88,NNE,21,0.0,0.0,86,0.00,,CLR,0.00,VWS V14.01,2013-10-29 11:44:00,
2013-10-29 04:45:00,36.3,32.5,29.88,NNE,21,0.0,0.0,86,0.00,,CLR,0.00,VWS V14.01,2013-10-29 11:45:00,
2013-10-29 04:47:00,36.3,32.5,29.88,NNE,21,0.0,0.0,86,0.00,,CLR,0.00,VWS V14.01,2013-10-29 11:47:00,
2013-10-29 04:48:00,36.2,32.4,29.88,NNE,21,1.0,2.0,86,0.00,,CLR,0.00,VWS V14.01,2013-10-29 11:48:00,
2013-10-29 04:49:00,36.2,32.4,29.88,NNE,21,0.0,2.0,86,0.00,,CLR,0.00,VWS V14.01,2013-10-29 11:49:00,
2013-10-29 04:50:00,36.2,32.4,29.88,NNE,21,2.0,2.0,86,0.00,,CLR,0.00,VWS V14.01,2013-10-29 11:50:00,
2013-10-29 04:51:00,36.2,32.4,29.88,NNE,21,0.0,1.0,86,0.00,,CLR,0.00,VWS V14.01,2013-10-29 11:51:00,
2013-10-29 04:54:00,36.0,32.2,29.88,NNE,21,0.0,1.0,86,0.00,,CLR,0.00,VWS V14.01,2013-10-29 11:54:00,
2013-10-29 04:55:00,36.2,32.4,29.88,NNE,21,0.0,1.0,86,0.00,,CLR,0.00,VWS V14.01,2013-10-29 11:55:00,
2013-10-29 04:56:00,36.0,32.2,29.88,NNE,21,0.0,0.0,86,0.00,,CLR,0.00,VWS V14.01,2013-10-29 11:56:00,
2013-10-29 04:59:00,36.2,32.4,29.88,NNE,21,0.0,2.0,86,0.00,,CLR,0.00,VWS V14.01,2013-10-29 11:59:00,
2013-10-29 05:00:00,36.2,32.1,29.88,NNE,21,0.0,2.0,85,0.00,,CLR,0.00,VWS V14.01,2013-10-29 12:00:00,
2013-10-29 05:03:00,36.2,32.1,29.88,NNE,21,0.0,1.0,85,0.00,,CLR,0.00,VWS V14.01,2013-10-29 12:03:00,
2013-10-29 05:04:00,36.2,32.1,29.88,NNE,21,0.0,1.0,85,0.00,,CLR,0.00,VWS V14.01,2013-10-29 12:04:00,
2013-10-29 05:06:00,36.3,32.2,29.88,NNE,21,0.0,1.0,85,0.00,,CLR,0.00,VWS V14.01,2013-10-29 12:06:00,
2013-10-29 05:09:00,36.5,32.1,29.88,NNE,21,1.0,3.0,84,0.00,,CLR,0.00,VWS V14.01,2013-10-29 12:09:00,
2013-10-29 05:10:00,36.5,32.1,29.88,NNE,23,1.0,3.0,84,0.00,,CLR,0.00,VWS V14.01,2013-10-29 12:10:00,
2013-10-29 05:11:00,36.5,32.1,29.88,NNE,23,2.0,3.0,84,0.00,,CLR,0.00,VWS V14.01,2013-10-29 12:11:00,
2013-10-29 05:15:00,36.6,31.9,29.89,NNE,23,1.0,3.0,83,0.00,,CLR,0.00,VWS V14.01,2013-10-29 12:15:00,
2013-10-29 05:16:00,36.8,32.1,29.89,NNE,23,1.0,3.0,83,0.00,,CLR,0.00,VWS V14.01,2013-10-29 12:16:00,
2013-10-29 05:18:00,36.8,32.1,29.89,NNE,23,2.0,2.0,83,0.00,,CLR,0.00,VWS V14.01,2013-10-29 12:18:00,
2013-10-29 05:20:00,36.8,31.8,29.89,NNE,23,3.0,3.0,82,0.00,,CLR,0.00,VWS V14.01,2013-10-29 12:20:00,
2013-10-29 05:21:00,36.8,31.8,29.89,NNE,23,3.0,3.0,82,0.00,,CLR,0.00,VWS V14.01,2013-10-29 12:21:00,
2013-10-29 05:22:00,36.9,31.9,29.89,NNE,23,1.0,3.0,82,0.00,,CLR,0.00,VWS V14.01,2013-10-29 12:22:00,
2013-10-29 05:24:00,36.9,31.9,29.89,NNE,23,2.0,3.0,82,0.00,,CLR,0.00,VWS V14.01,2013-10-29 12:24:00,
2013-10-29 05:26:00,36.9,31.6,29.89,NNE,23,2.0,3.0,81,0.00,,CLR,0.00,VWS V14.01,2013-10-29 12:26:00,
2013-10-29 05:27:00,36.9,31.6,29.89,NNE,23,1.0,2.0,81,0.00,,CLR,0.00,VWS V14.01,2013-10-29 12:27:00,
2013-10-29 05:29:00,36.9,31.6,29.89,NNE,23,2.0,2.0,81,0.00,,CLR,0.00,VWS V14.01,2013-10-29 12:29:00,
2013-10-29 05:30:00,36.9,31.6,29.89,NNE,23,1.0,2.0,81,0.00,,CLR,0.00,VWS V14.01,2013-10-29 12:30:00,
2013-10-29 05:32:00,36.9,31.6,29.89,NNE,23,2.0,2.0,81,0.00,,CLR,0.00,VWS V14.01,2013-10-29 12:32:00,
2013-10-29 05:34:00,36.8,31.5,29.89,NNE,23,2.0,3.0,81,0.00,,CLR,0.00,VWS V14.01,2013-10-29 12:34:00,
2013-10-29 05:35:00,36.6,31.3,29.89,NNE,23,1.0,3.0,81,0.00,,CLR,0.00,VWS V14.01,2013-10-29 12:35:00,
2013-10-29 05:37:00,36.5,31.2,29.89,NNE,23,1.0,1.0,81,0.00,,CLR,0.00,VWS V14.01,2013-10-29 12:37:00,
2013-10-29 05:39:00,36.3,31.0,29.89,NNE,23,1.0,2.0,81,0.00,,CLR,0.00,VWS V14.01,2013-10-29 12:39:00,
2013-10-29 05:40:00,36.3,31.3,29.89,NNE,23,1.0,2.0,82,0.00,,CLR,0.00,VWS V14.01,2013-10-29 12:40:00,
2013-10-29 05:43:00,36.2,31.2,29.89,NNE,23,1.0,1.0,82,0.00,,CLR,0.00,VWS V14.01,2013-10-29 12:43:00,
2013-10-29 05:44:00,36.0,31.4,29.89,NNE,23,1.0,1.0,83,0.00,,CLR,0.00,VWS V14.01,2013-10-29 12:44:00,
2013-10-29 05:45:00,36.0,31.4,29.90,NNE,23,1.0,2.0,83,0.00,,CLR,0.00,VWS V14.01,2013-10-29 12:45:00,
2013-10-29 05:46:00,36.0,31.4,29.90,NNE,23,1.0,2.0,83,0.00,,CLR,0.00,VWS V14.01,2013-10-29 12:46:00,
2013-10-29 05:51:00,35.9,31.2,29.90,NNE,23,0.0,1.0,83,0.00,,CLR,0.00,VWS V14.01,2013-10-29 12:51:00,
2013-10-29 05:52:00,35.9,31.2,29.90,NNE,23,0.0,0.0,83,0.00,,CLR,0.00,VWS V14.01,2013-10-29 12:52:00,
2013-10-29 05:53:00,35.8,31.5,29.90,NNE,23,0.0,0.0,84,0.00,,CLR,0.00,VWS V14.01,2013-10-29 12:53:00,
2013-10-29 05:58:00,35.8,31.5,29.90,NNE,23,2.0,2.0,84,0.00,,CLR,0.00,VWS V14.01,2013-10-29 12:58:00,
2013-10-29 05:59:00,35.8,31.5,29.90,NNE,23,2.0,2.0,84,0.00,,CLR,0.00,VWS V14.01,2013-10-29 12:59:00,
2013-10-29 06:00:00,35.8,31.5,29.91,NNE,23,1.0,2.0,84,0.00,,CLR,0.00,VWS V14.01,2013-10-29 13:00:00,
2013-10-29 06:03:00,35.9,31.5,29.91,NNE,23,2.0,2.0,84,0.00,,CLR,0.00,VWS V14.01,2013-10-29 13:03:00,
2013-10-29 06:05:00,35.9,31.5,29.91,NNE,23,2.0,2.0,84,0.00,,CLR,0.00,VWS V14.01,2013-10-29 13:05:00,
2013-10-29 06:06:00,35.9,31.5,29.91,NNE,23,1.0,2.0,84,0.00,,CLR,0.00,VWS V14.01,2013-10-29 13:06:00,
2013-10-29 06:08:00,35.9,31.5,29.91,NNE,23,1.0,2.0,84,0.00,,CLR,0.00,VWS V14.01,2013-10-29 13:08:00,
2013-10-29 06:11:00,35.8,31.5,29.91,NNE,23,1.0,2.0,84,0.00,,CLR,0.00,VWS V14.01,2013-10-29 13:11:00,
2013-10-29 06:12:00,35.8,31.5,29.91,NNE,23,2.0,2.0,84,0.00,,CLR,0.00,VWS V14.01,2013-10-29 13:12:00,
2013-10-29 06:13:00,35.8,31.5,29.91,NNE,23,1.0,3.0,84,0.00,,CLR,0.00,VWS V14.01,2013-10-29 13:13:00,
2013-10-29 06:16:00,35.6,31.2,29.91,NNE,23,1.0,3.0,84,0.00,,CLR,0.00,VWS V14.01,2013-10-29 13:16:00,
2013-10-29 06:19:00,35.6,31.2,29.91,NNE,23,1.0,3.0,84,0.00,,CLR,0.00,VWS V14.01,2013-10-29 13:19:00,
2013-10-29 06:20:00,35.5,31.1,29.91,NNE,23,1.0,3.0,84,0.00,,CLR,0.00,VWS V14.01,2013-10-29 13:20:00,
2013-10-29 06:21:00,35.5,31.1,29.91,NNE,23,2.0,3.0,84,0.00,,CLR,0.00,VWS V14.01,2013-10-29 13:21:00,
2013-10-29 06:22:00,35.5,31.5,29.91,NNE,23,0.0,2.0,85,0.00,,CLR,0.00,VWS V14.01,2013-10-29 13:22:00,
2013-10-29 06:23:00,35.5,31.5,29.91,NNE,23,0.0,2.0,85,0.00,,CLR,0.00,VWS V14.01,2013-10-29 13:23:00,
2013-10-29 06:25:00,35.3,31.2,29.91,NNE,23,0.0,2.0,85,0.00,,CLR,0.00,VWS V14.01,2013-10-29 13:25:00,
2013-10-29 06:26:00,35.3,31.2,29.91,NNE,23,0.0,2.0,85,0.00,,CLR,0.00,VWS V14.01,2013-10-29 13:26:00,
2013-10-29 06:29:00,35.3,31.2,29.91,NNE,23,3.0,3.0,85,0.00,,CLR,0.00,VWS V14.01,2013-10-29 13:29:00,
2013-10-29 06:31:00,35.3,31.2,29.92,NNE,23,2.0,3.0,85,0.00,,CLR,0.00,VWS V14.01,2013-10-29 13:31:00,
2013-10-29 06:32:00,35.2,31.1,29.92,NNE,23,2.0,3.0,85,0.00,,CLR,0.00,VWS V14.01,2013-10-29 13:32:00,
2013-10-29 06:33:00,35.2,31.1,29.92,NNE,23,2.0,3.0,85,0.00,,CLR,0.00,VWS V14.01,2013-10-29 13:33:00,
2013-10-29 06:36:00,35.0,31.0,29.92,NNE,23,2.0,3.0,85,0.00,,CLR,0.00,VWS V14.01,2013-10-29 13:36:00,
2013-10-29 06:37:00,35.0,31.0,29.92,NNE,23,2.0,3.0,85,0.00,,CLR,0.00,VWS V14.01,2013-10-29 13:37:00,
2013-10-29 06:39:00,34.9,30.9,29.92,NNE,23,1.0,3.0,85,0.00,,CLR,0.00,VWS V14.01,2013-10-29 13:39:00,
2013-10-29 06:41:00,34.9,30.9,29.92,NNE,23,0.0,3.0,85,0.00,,CLR,0.00,VWS V14.01,2013-10-29 13:41:00,
2013-10-29 06:44:00,34.7,30.7,29.92,NNE,23,0.0,0.0,85,0.00,,CLR,0.00,VWS V14.01,2013-10-29 13:44:00,
2013-10-29 06:46:00,34.7,31.0,29.92,NNE,23,2.0,2.0,86,0.00,,CLR,0.00,VWS V14.01,2013-10-29 13:46:00,
2013-10-29 06:47:00,34.7,31.0,29.92,NNE,23,1.0,2.0,86,0.00,,CLR,0.00,VWS V14.01,2013-10-29 13:47:00,
2013-10-29 06:50:00,34.7,31.0,29.92,NNE,23,2.0,2.0,86,0.00,,CLR,0.00,VWS V14.01,2013-10-29 13:50:00,
2013-10-29 06:52:00,34.7,31.0,29.92,NNE,23,0.0,2.0,86,0.00,,CLR,0.00,VWS V14.01,2013-10-29 13:52:00,
2013-10-29 06:56:00,34.7,31.2,29.92,NNE,23,0.0,2.0,87,0.00,,CLR,0.00,VWS V14.01,2013-10-29 13:56:00,
2013-10-29 06:57:00,34.6,31.1,29.92,NNE,23,0.0,1.0,87,0.00,,CLR,0.00,VWS V14.01,2013-10-29 13:57:00,
2013-10-29 06:58:00,34.6,31.1,29.92,NNE,23,1.0,1.0,87,0.00,,CLR,0.00,VWS V14.01,2013-10-29 13:58:00,
2013-10-29 07:01:00,34.6,31.1,29.92,NNE,23,1.0,1.0,87,0.00,,CLR,0.00,VWS V14.01,2013-10-29 14:01:00,
2013-10-29 07:03:00,34.4,30.9,29.92,NNE,23,1.0,1.0,87,0.00,,CLR,0.00,VWS V14.01,2013-10-29 14:03:00,
2013-10-29 07:05:00,34.4,30.9,29.92,NNE,23,0.0,1.0,87,0.00,,CLR,0.00,VWS V14.01,2013-10-29 14:05:00,
2013-10-29 07:06:00,34.4,30.9,29.92,NNE,23,0.0,1.0,87,0.00,,CLR,0.00,VWS V14.01,2013-10-29 14:06:00,
2013-10-29 07:08:00,34.4,30.9,29.92,NNE,23,0.0,0.0,87,0.00,,CLR,0.00,VWS V14.01,2013-10-29 14:08:00,
2013-10-29 07:09:00,34.4,30.9,29.92,NNE,23,0.0,0.0,87,0.00,,CLR,0.00,VWS V14.01,2013-10-29 14:09:00,
2013-10-29 07:11:00,34.4,30.9,29.92,NNE,23,0.0,1.0,87,0.00,,CLR,0.00,VWS V14.01,2013-10-29 14:11:00,
2013-10-29 07:13:00,34.4,30.9,29.92,NNE,23,0.0,0.0,87,0.00,,CLR,0.00,VWS V14.01,2013-10-29 14:13:00,
2013-10-29 07:16:00,34.3,30.8,29.93,NNE,23,0.0,0.0,87,0.00,,CLR,0.00,VWS V14.01,2013-10-29 14:16:00,
2013-10-29 07:20:00,34.3,30.8,29.93,NNE,23,0.0,0.0,87,0.00,,CLR,0.00,VWS V14.01,2013-10-29 14:20:00,
2013-10-29 07:21:00,34.3,30.8,29.93,NNE,23,0.0,0.0,87,0.00,,CLR,0.00,VWS V14.01,2013-10-29 14:21:00,
2013-10-29 07:22:00,34.3,30.8,29.93,NNE,23,0.0,0.0,87,0.00,,CLR,0.00,VWS V14.01,2013-10-29 14:22:00,
2013-10-29 07:23:00,34.3,30.8,29.93,NNE,23,0.0,0.0,87,0.00,,CLR,0.00,VWS V14.01,2013-10-29 14:23:00,
2013-10-29 07:24:00,34.1,30.6,29.93,NNE,23,0.0,0.0,87,0.00,,CLR,0.00,VWS V14.01,2013-10-29 14:24:00,
2013-10-29 07:26:00,34.1,30.6,29.93,NNE,23,0.0,0.0,87,0.00,,CLR,0.00,VWS V14.01,2013-10-29 14:26:00,
2013-10-29 07:28:00,34.1,30.6,29.93,NNE,23,0.0,0.0,87,0.00,,CLR,0.00,VWS V14.01,2013-10-29 14:28:00,
2013-10-29 07:31:00,34.0,30.5,29.93,NNE,23,0.0,0.0,87,0.00,,CLR,0.00,VWS V14.01,2013-10-29 14:31:00,
2013-10-29 07:32:00,34.0,30.5,29.93,NNE,23,0.0,0.0,87,0.00,,CLR,0.00,VWS V14.01,2013-10-29 14:32:00,
2013-10-29 07:33:00,34.0,30.5,29.93,NNE,23,0.0,0.0,87,0.00,,CLR,0.00,VWS V14.01,2013-10-29 14:33:00,
2013-10-29 07:36:00,33.8,30.6,29.93,NNE,23,0.0,0.0,88,0.00,,CLR,0.00,VWS V14.01,2013-10-29 14:36:00,
2013-10-29 07:38:00,33.8,30.6,29.93,NNE,23,0.0,0.0,88,0.00,,CLR,0.00,VWS V14.01,2013-10-29 14:38:00,
2013-10-29 07:39:00,33.7,30.5,29.93,NNE,23,0.0,0.0,88,0.00,,CLR,0.00,VWS V14.01,2013-10-29 14:39:00,
2013-10-29 07:41:00,33.7,30.5,29.93,NNE,23,0.0,0.0,88,0.00,,CLR,0.00,VWS V14.01,2013-10-29 14:41:00,
2013-10-29 07:44:00,33.5,30.3,29.93,NNE,23,0.0,0.0,88,0.00,,CLR,0.00,VWS V14.01,2013-10-29 14:44:00,
2013-10-29 07:45:00,33.5,30.3,29.93,NNE,23,0.0,0.0,88,0.00,,CLR,0.00,VWS V14.01,2013-10-29 14:45:00,
2013-10-29 07:46:00,33.5,30.3,29.93,NNE,23,0.0,0.0,88,0.00,,CLR,0.00,VWS V14.01,2013-10-29 14:46:00,
2013-10-29 07:47:00,33.5,30.3,29.93,NNE,23,0.0,0.0,88,0.00,,CLR,0.00,VWS V14.01,2013-10-29 14:47:00,
2013-10-29 07:50:00,33.4,30.2,29.93,NNE,23,0.0,0.0,88,0.00,,CLR,0.00,VWS V14.01,2013-10-29 14:50:00,
2013-10-29 07:51:00,33.4,30.2,29.93,NNE,23,0.0,0.0,88,0.00,,CLR,0.00,VWS V14.01,2013-10-29 14:51:00,
2013-10-29 07:52:00,33.4,30.2,29.93,NNE,23,0.0,0.0,88,0.00,,CLR,0.00,VWS V14.01,2013-10-29 14:52:00,
2013-10-29 07:53:00,33.4,30.2,29.93,NNE,23,0.0,0.0,88,0.00,,CLR,0.00,VWS V14.01,2013-10-29 14:53:00,
2013-10-29 07:55:00,33.4,30.5,29.93,NNE,23,0.0,0.0,89,0.00,,CLR,0.00,VWS V14.01,2013-10-29 14:55:00,
2013-10-29 07:56:00,33.4,30.5,29.93,NNE,23,0.0,0.0,89,0.00,,CLR,0.00,VWS V14.01,2013-10-29 14:56:00,
2013-10-29 07:57:00,33.4,30.5,29.93,NNE,23,0.0,0.0,89,0.00,,CLR,0.00,VWS V14.01,2013-10-29 14:57:00,
2013-10-29 08:00:00,33.4,30.5,29.93,NNE,23,0.0,0.0,89,0.00,,CLR,0.00,VWS V14.01,2013-10-29 15:00:00,
2013-10-29 08:01:00,33.4,30.5,29.93,NNE,23,0.0,0.0,89,0.00,,CLR,0.00,VWS V14.01,2013-10-29 15:01:00,
2013-10-29 08:02:00,33.4,30.5,29.93,NNE,23,0.0,0.0,89,0.00,,CLR,0.00,VWS V14.01,2013-10-29 15:02:00,
2013-10-29 08:06:00,33.4,30.8,29.93,NNE,23,0.0,0.0,90,0.00,,CLR,0.00,VWS V14.01,2013-10-29 15:06:00,
2013-10-29 08:08:00,33.4,30.8,29.93,NNE,23,0.0,0.0,90,0.00,,CLR,0.00,VWS V14.01,2013-10-29 15:08:00,
2013-10-29 08:09:00,33.4,30.8,29.93,NNE,23,0.0,0.0,90,0.00,,CLR,0.00,VWS V14.01,2013-10-29 15:09:00,
2013-10-29 08:11:00,33.4,30.8,29.93,NNE,23,0.0,0.0,90,0.00,,CLR,0.00,VWS V14.01,2013-10-29 15:11:00,
2013-10-29 08:13:00,33.5,30.9,29.93,NNE,23,0.0,0.0,90,0.00,,CLR,0.00,VWS V14.01,2013-10-29 15:13:00,
2013-10-29 08:14:00,33.5,30.9,29.93,NNE,23,0.0,0.0,90,0.00,,CLR,0.00,VWS V14.01,2013-10-29 15:14:00,
2013-10-29 08:15:00,33.5,30.9,29.93,NNE,23,0.0,0.0,90,0.00,,CLR,0.00,VWS V14.01,2013-10-29 15:15:00,
2013-10-29 08:16:00,33.5,30.9,29.94,NNE,23,0.0,0.0,90,0.00,,CLR,0.00,VWS V14.01,2013-10-29 15:16:00,
2013-10-29 08:17:00,33.5,30.9,29.94,NNE,23,0.0,0.0,90,0.00,,CLR,0.00,VWS V14.01,2013-10-29 15:17:00,
2013-10-29 08:19:00,33.5,30.9,29.94,NNE,23,0.0,0.0,90,0.00,,CLR,0.00,VWS V14.01,2013-10-29 15:19:00,
2013-10-29 08:20:00,33.5,30.9,29.94,NNE,23,0.0,0.0,90,0.00,,CLR,0.00,VWS V14.01,2013-10-29 15:20:00,
2013-10-29 08:21:00,33.5,30.9,29.94,NNE,23,0.0,0.0,90,0.00,,CLR,0.00,VWS V14.01,2013-10-29 15:21:00,
2013-10-29 08:23:00,33.7,31.1,29.94,NNE,23,0.0,0.0,90,0.00,,CLR,0.00,VWS V14.01,2013-10-29 15:23:00,
2013-10-29 08:24:00,33.7,31.1,29.94,NNE,23,0.0,0.0,90,0.00,,CLR,0.00,VWS V14.01,2013-10-29 15:24:00,
2013-10-29 08:25:00,33.7,31.1,29.94,NNE,23,0.0,0.0,90,0.00,,CLR,0.00,VWS V14.01,2013-10-29 15:25:00,
2013-10-29 08:26:00,33.7,31.1,29.94,NNE,23,0.0,0.0,90,0.00,,CLR,0.00,VWS V14.01,2013-10-29 15:26:00,
2013-10-29 08:29:00,33.8,31.2,29.94,NNE,23,0.0,0.0,90,0.00,,CLR,0.00,VWS V14.01,2013-10-29 15:29:00,
2013-10-29 08:30:00,33.8,31.2,29.94,NNE,23,0.0,0.0,90,0.00,,CLR,0.00,VWS V14.01,2013-10-29 15:30:00,
2013-10-29 08:31:00,33.8,31.2,29.94,NNE,23,0.0,0.0,90,0.00,,CLR,0.00,VWS V14.01,2013-10-29 15:31:00,
2013-10-29 08:33:00,34.0,31.4,29.94,NNE,23,2.0,2.0,90,0.00,,CLR,0.00,VWS V14.01,2013-10-29 15:33:00,
2013-10-29 08:34:00,34.1,31.5,29.94,NNE,23,2.0,2.0,90,0.00,,CLR,0.00,VWS V14.01,2013-10-29 15:34:00,
2013-10-29 08:36:00,34.4,31.8,29.94,NNE,23,2.0,2.0,90,0.00,,CLR,0.00,VWS V14.01,2013-10-29 15:36:00,
2013-10-29 08:37:00,34.4,31.8,29.94,NNE,23,1.0,2.0,90,0.00,,CLR,0.00,VWS V14.01,2013-10-29 15:37:00,
2013-10-29 08:39:00,34.7,32.1,29.94,NNE,23,2.0,2.0,90,0.00,,CLR,0.00,VWS V14.01,2013-10-29 15:39:00,
2013-10-29 08:40:00,34.9,32.3,29.94,NNE,23,1.0,2.0,90,0.00,,CLR,0.00,VWS V14.01,2013-10-29 15:40:00,
2013-10-29 08:41:00,35.0,32.1,29.94,NNE,23,1.0,2.0,89,0.00,,CLR,0.00,VWS V14.01,2013-10-29 15:41:00,
2013-10-29 08:45:00,35.6,32.4,29.94,NNE,23,2.0,2.0,88,0.00,,CLR,0.00,VWS V14.01,2013-10-29 15:45:00,
2013-10-29 08:46:00,35.8,32.3,29.94,NNE,23,2.0,2.0,87,0.00,,CLR,0.00,VWS V14.01,2013-10-29 15:46:00,
2013-10-29 08:47:00,35.8,32.3,29.94,NNE,23,2.0,2.0,87,0.00,,CLR,0.00,VWS V14.01,2013-10-29 15:47:00,
2013-10-29 08:49:00,36.0,32.5,29.94,NNE,23,2.0,2.0,87,0.00,,CLR,0.00,VWS V14.01,2013-10-29 15:49:00,
2013-10-29 08:51:00,36.3,32.2,29.94,NNE,23,1.0,1.0,85,0.00,,CLR,0.00,VWS V14.01,2013-10-29 15:51:00,
2013-10-29 08:53:00,36.6,32.5,29.94,NNE,23,1.0,2.0,85,0.00,,CLR,0.00,VWS V14.01,2013-10-29 15:53:00,
2013-10-29 08:56:00,37.0,32.6,29.94,NNE,23,0.0,2.0,84,0.00,,CLR,0.00,VWS V14.01,2013-10-29 15:56:00,
2013-10-29 08:57:00,37.2,32.5,29.94,NNE,23,0.0,0.0,83,0.00,,CLR,0.00,VWS V14.01,2013-10-29 15:57:00,
2013-10-29 08:58:00,37.3,32.6,29.94,NNE,23,0.0,0.0,83,0.00,,CLR,0.00,VWS V14.01,2013-10-29 15:58:00,
2013-10-29 09:00:00,37.5,32.5,29.94,NNE,23,0.0,1.0,82,0.00,,CLR,0.00,VWS V14.01,2013-10-29 16:00:00,
2013-10-29 09:01:00,37.6,32.3,29.94,NNE,23,0.0,0.0,81,0.00,,CLR,0.00,VWS V14.01,2013-10-29 16:01:00,
2013-10-29 09:03:00,37.8,32.5,29.94,NNE,23,0.0,1.0,81,0.00,,CLR,0.00,VWS V14.01,2013-10-29 16:03:00,
2013-10-29 09:06:00,38.0,32.4,29.94,NNE,23,0.0,2.0,80,0.00,,CLR,0.00,VWS V14.01,2013-10-29 16:06:00,
2013-10-29 09:07:00,38.2,32.3,29.94,NNE,23,0.0,0.0,79,0.00,,CLR,0.00,VWS V14.01,2013-10-29 16:07:00,
2013-10-29 09:09:00,38.3,32.4,29.94,NNE,23,0.0,0.0,79,0.00,,CLR,0.00,VWS V14.01,2013-10-29 16:09:00,
2013-10-29 09:11:00,38.5,32.6,29.94,NNE,23,0.0,0.0,79,0.00,,CLR,0.00,VWS V14.01,2013-10-29 16:11:00,
2013-10-29 09:14:00,38.8,32.9,29.94,NNE,23,0.0,0.0,79,0.00,,CLR,0.00,VWS V14.01,2013-10-29 16:14:00,
2013-10-29 09:15:00,38.8,32.9,29.94,NNE,23,0.0,1.0,79,0.00,,CLR,0.00,VWS V14.01,2013-10-29 16:15:00,
2013-10-29 09:16:00,38.9,33.0,29.94,NNE,23,0.0,1.0,79,0.00,,CLR,0.00,VWS V14.01,2013-10-29 16:16:00,
2013-10-29 09:18:00,39.1,33.2,29.94,NNE,23,0.0,0.0,79,0.00,,CLR,0.00,VWS V14.01,2013-10-29 16:18:00,
2013-10-29 09:20:00,39.3,33.3,29.94,NNE,23,0.0,0.0,79,0.00,,CLR,0.00,VWS V14.01,2013-10-29 16:20:00,
2013-10-29 09:21:00,39.5,33.5,29.94,NNE,23,0.0,0.0,79,0.00,,CLR,0.00,VWS V14.01,2013-10-29 16:21:00,
2013-10-29 09:23:00,39.8,33.5,29.94,NNE,23,2.0,2.0,78,0.00,,CLR,0.00,VWS V14.01,2013-10-29 16:23:00,
2013-10-29 09:25:00,40.1,33.5,29.94,NNE,23,1.0,3.0,77,0.00,,CLR,0.00,VWS V14.01,2013-10-29 16:25:00,
2013-10-29 09:26:00,40.2,33.6,29.94,NNE,23,0.0,3.0,77,0.00,,CLR,0.00,VWS V14.01,2013-10-29 16:26:00,
2013-10-29 09:28:00,40.5,33.9,29.94,NNE,23,0.0,1.0,77,0.00,,CLR,0.00,VWS V14.01,2013-10-29 16:28:00,
2013-10-29 09:31:00,40.8,33.8,29.94,NNE,23,1.0,1.0,76,0.00,,CLR,0.00,VWS V14.01,2013-10-29 16:31:00,
2013-10-29 09:34:00,40.9,33.9,29.94,NNE,23,0.0,1.0,76,0.00,,CLR,0.00,VWS V14.01,2013-10-29 16:34:00,
2013-10-29 09:35:00,40.9,33.9,29.94,NNE,23,0.0,1.0,76,0.00,,CLR,0.00,VWS V14.01,2013-10-29 16:35:00,
2013-10-29 09:36:00,40.9,33.9,29.94,NNE,23,0.0,1.0,76,0.00,,CLR,0.00,VWS V14.01,2013-10-29 16:36:00,
2013-10-29 09:37:00,40.9,33.6,29.94,NNE,23,0.0,0.0,75,0.00,,CLR,0.00,VWS V14.01,2013-10-29 16:37:00,
2013-10-29 09:39:00,40.9,33.6,29.94,NNE,23,0.0,0.0,75,0.00,,CLR,0.00,VWS V14.01,2013-10-29 16:39:00,
2013-10-29 09:40:00,41.1,33.8,29.94,NNE,23,0.0,0.0,75,0.00,,CLR,0.00,VWS V14.01,2013-10-29 16:40:00,
2013-10-29 09:41:00,41.1,33.8,29.94,NNE,23,0.0,0.0,75,0.00,,CLR,0.00,VWS V14.01,2013-10-29 16:41:00,
2013-10-29 09:44:00,41.2,33.5,29.94,NNE,23,0.0,3.0,74,0.00,,CLR,0.00,VWS V14.01,2013-10-29 16:44:00,
2013-10-29 09:45:00,41.2,33.5,29.95,NNE,23,3.0,3.0,74,0.00,,CLR,0.00,VWS V14.01,2013-10-29 16:45:00,
2013-10-29 09:46:00,41.3,33.7,29.95,NNE,23,3.0,3.0,74,0.00,,CLR,0.00,VWS V14.01,2013-10-29 16:46:00,
2013-10-29 09:47:00,41.5,33.5,29.95,NNE,23,1.0,3.0,73,0.00,,CLR,0.00,VWS V14.01,2013-10-29 16:47:00,
2013-10-29 09:50:00,41.6,33.3,29.95,NNE,23,1.0,3.0,72,0.00,,CLR,0.00,VWS V14.01,2013-10-29 16:50:00,
2013-10-29 09:51:00,41.8,33.8,29.95,NNE,23,1.0,3.0,73,0.00,,CLR,0.00,VWS V14.01,2013-10-29 16:51:00,
2013-10-29 09:53:00,41.8,33.8,29.95,NNE,23,0.0,2.0,73,0.00,,CLR,0.00,VWS V14.01,2013-10-29 16:53:00,
2013-10-29 09:54:00,41.9,33.9,29.95,NNE,23,1.0,2.0,73,0.00,,CLR,0.00,VWS V14.01,2013-10-29 16:54:00,
2013-10-29 09:56:00,41.9,33.9,29.95,NNE,23,2.0,3.0,73,0.00,,CLR,0.00,VWS V14.01,2013-10-29 16:56:00,
2013-10-29 09:59:00,42.2,34.2,29.95,NNE,23,1.0,5.0,73,0.00,,CLR,0.00,VWS V14.01,2013-10-29 16:59:00,
2013-10-29 10:00:00,42.3,34.3,29.95,NNE,23,2.0,5.0,73,0.00,,CLR,0.00,VWS V14.01,2013-10-29 17:00:00,
2013-10-29 10:01:00,42.3,34.3,29.95,NNE,23,2.0,5.0,73,0.00,,CLR,0.00,VWS V14.01,2013-10-29 17:01:00,
2013-10-29 10:05:00,42.8,34.8,29.95,NNE,23,0.0,3.0,73,0.00,,CLR,0.00,VWS V14.01,2013-10-29 17:05:00,
2013-10-29 10:06:00,42.9,34.8,29.95,NNE,23,0.0,3.0,73,0.00,,CLR,0.00,VWS V14.01,2013-10-29 17:06:00,
2013-10-29 10:07:00,42.9,34.8,29.95,NNE,23,0.0,0.0,73,0.00,,CLR,0.00,VWS V14.01,2013-10-29 17:07:00,
2013-10-29 10:08:00,43.1,35.0,29.95,NNE,23,1.0,1.0,73,0.00,,CLR,0.00,VWS V14.01,2013-10-29 17:08:00,
2013-10-29 10:10:00,43.3,34.9,29.95,NNE,23,0.0,1.0,72,0.00,,CLR,0.00,VWS V14.01,2013-10-29 17:10:00,
2013-10-29 10:11:00,43.5,35.1,29.95,NNE,23,0.0,0.0,72,0.00,,CLR,0.00,VWS V14.01,2013-10-29 17:11:00,
2013-10-29 10:13:00,43.8,35.4,29.95,NNE,23,0.0,2.0,72,0.00,,CLR,0.00,VWS V14.01,2013-10-29 17:13:00,
2013-10-29 10:15:00,44.1,35.3,29.95,NNE,23,3.0,3.0,71,0.00,,CLR,0.00,VWS V14.01,2013-10-29 17:15:00,
2013-10-29 10:16:00,44.2,35.4,29.95,NNE,23,2.0,2.0,71,0.00,,CLR,0.00,VWS V14.01,2013-10-29 17:16:00,
2013-10-29 10:19:00,44.6,34.3,29.95,NNE,23,3.0,3.0,67,0.00,,CLR,0.00,VWS V14.01,2013-10-29 17:19:00,
2013-10-29 10:20:00,44.8,34.5,29.95,NNE,23,2.0,3.0,67,0.00,,CLR,0.00,VWS V14.01,2013-10-29 17:20:00,
2013-10-29 10:21:00,44.9,34.2,29.95,NNE,23,3.0,5.0,66,0.00,,CLR,0.00,VWS V14.01,2013-10-29 17:21:00,
2013-10-29 10:23:00,45.2,34.5,29.95,NNE,23,3.0,3.0,66,0.00,,CLR,0.00,VWS V14.01,2013-10-29 17:23:00,
2013-10-29 10:24:00,45.4,34.3,29.95,NNE,23,2.0,3.0,65,0.00,,CLR,0.00,VWS V14.01,2013-10-29 17:24:00,
2013-10-29 10:26:00,45.5,34.0,29.95,NNE,23,1.0,2.0,64,0.00,,CLR,0.00,VWS V14.01,2013-10-29 17:26:00,
2013-10-29 10:27:00,45.7,34.2,29.95,NNE,23,0.0,2.0,64,0.00,,CLR,0.00,VWS V14.01,2013-10-29 17:27:00,
2013-10-29 10:29:00,46.0,34.9,29.95,NNE,23,0.0,2.0,65,0.00,,CLR,0.00,VWS V14.01,2013-10-29 17:29:00,
2013-10-29 10:32:00,46.2,34.7,29.95,NNE,23,0.0,1.0,64,0.00,,CLR,0.00,VWS V14.01,2013-10-29 17:32:00,
2013-10-29 10:34:00,46.5,35.0,29.95,NNE,23,0.0,1.0,64,0.00,,CLR,0.00,VWS V14.01,2013-10-29 17:34:00,
2013-10-29 10:35:00,46.7,35.6,29.95,NNE,23,0.0,1.0,65,0.00,,CLR,0.00,VWS V14.01,2013-10-29 17:35:00,
2013-10-29 10:36:00,46.7,35.6,29.95,NNE,23,0.0,1.0,65,0.00,,CLR,0.00,VWS V14.01,2013-10-29 17:36:00,
2013-10-29 10:38:00,47.0,35.5,29.95,WNW,289,2.0,3.0,64,0.00,,CLR,0.00,VWS V14.01,2013-10-29 17:38:00,
2013-10-29 10:39:00,47.0,35.5,29.95,WNW,289,1.0,3.0,64,0.00,,CLR,0.00,VWS V14.01,2013-10-29 17:39:00,
2013-10-29 10:41:00,47.0,35.1,29.95,WNW,288,0.0,2.0,63,0.00,,CLR,0.00,VWS V14.01,2013-10-29 17:41:00,
2013-10-29 10:42:00,47.1,35.2,29.95,WNW,288,1.0,2.0,63,0.00,,CLR,0.00,VWS V14.01,2013-10-29 17:42:00,
2013-10-29 10:45:00,47.3,35.0,29.95,WNW,288,0.0,3.0,62,0.00,,CLR,0.00,VWS V14.01,2013-10-29 17:45:00,
2013-10-29 10:46:00,47.3,35.0,29.95,WNW,288,0.0,0.0,62,0.00,,CLR,0.00,VWS V14.01,2013-10-29 17:46:00,
2013-10-29 10:47:00,47.4,35.5,29.95,WNW,288,0.0,0.0,63,0.00,,CLR,0.00,VWS V14.01,2013-10-29 17:47:00,
2013-10-29 10:48:00,47.6,35.6,29.95,WNW,288,0.0,0.0,63,0.00,,CLR,0.00,VWS V14.01,2013-10-29 17:48:00,
2013-10-29 10:51:00,47.7,34.9,29.95,WNW,288,0.0,3.0,61,0.00,,CLR,0.00,VWS V14.01,2013-10-29 17:51:00,
2013-10-29 10:52:00,47.9,35.1,29.95,WNW,288,2.0,3.0,61,0.00,,CLR,0.00,VWS V14.01,2013-10-29 17:52:00,
2013-10-29 10:53:00,47.9,35.1,29.95,WNW,288,1.0,3.0,61,0.00,,CLR,0.00,VWS V14.01,2013-10-29 17:53:00,
2013-10-29 10:57:00,48.0,35.2,29.95,WNW,288,2.0,3.0,61,0.00,,CLR,0.00,VWS V14.01,2013-10-29 17:57:00,
2013-10-29 10:58:00,48.2,35.4,29.95,WNW,288,2.0,3.0,61,0.00,,CLR,0.00,VWS V14.01,2013-10-29 17:58:00,
2013-10-29 10:59:00,48.2,35.0,29.95,WSW,254,2.0,5.0,60,0.00,,CLR,0.00,VWS V14.01,2013-10-29 17:59:00,
2013-10-29 11:03:00,48.3,35.1,29.95,WSW,254,1.0,5.0,60,0.00,,CLR,0.00,VWS V14.01,2013-10-29 18:03:00,
2013-10-29 11:04:00,48.3,35.1,29.95,WSW,254,0.0,5.0,60,0.00,,CLR,0.00,VWS V14.01,2013-10-29 18:04:00,
2013-10-29 11:05:00,48.5,35.3,29.95,WSW,254,0.0,5.0,60,0.00,,CLR,0.00,VWS V14.01,2013-10-29 18:05:00,
2013-10-29 11:06:00,48.6,35.8,29.95,WSW,254,3.0,3.0,61,0.00,,CLR,0.00,VWS V14.01,2013-10-29 18:06:00,
2013-10-29 11:09:00,48.8,35.5,29.95,WSW,254,0.0,3.0,60,0.00,,CLR,0.00,VWS V14.01,2013-10-29 18:09:00,
2013-10-29 11:10:00,48.9,35.6,29.95,WSW,254,0.0,3.0,60,0.00,,CLR,0.00,VWS V14.01,2013-10-29 18:10:00,
2013-10-29 11:11:00,49.1,35.8,29.95,WSW,254,3.0,3.0,60,0.00,,CLR,0.00,VWS V14.01,2013-10-29 18:11:00,
2013-10-29 11:12:00,49.2,35.5,29.95,WSW,254,2.0,3.0,59,0.00,,CLR,0.00,VWS V14.01,2013-10-29 18:12:00,
2013-10-29 11:16:00,49.5,35.3,29.94,WSW,254,0.0,3.0,58,0.00,,CLR,0.00,VWS V14.01,2013-10-29 18:16:00,
2013-10-29 11:17:00,49.6,35.5,29.94,WSW,254,2.0,2.0,58,0.00,,CLR,0.00,VWS V14.01,2013-10-29 18:17:00,
2013-10-29 11:19:00,49.9,34.8,29.94,WSW,254,1.0,2.0,56,0.00,,CLR,0.00,VWS V14.01,2013-10-29 18:19:00,
2013-10-29 11:20:00,50.1,35.0,29.94,WSW,254,2.0,2.0,56,0.00,,CLR,0.00,VWS V14.01,2013-10-29 18:20:00,
2013-10-29 11:21:00,50.1,35.0,29.94,WSW,254,1.0,2.0,56,0.00,,CLR,0.00,VWS V14.01,2013-10-29 18:21:00,
2013-10-29 11:25:00,50.5,36.3,29.94,WSW,254,0.0,1.0,58,0.00,,CLR,0.00,VWS V14.01,2013-10-29 18:25:00,
2013-10-29 11:26:00,50.8,37.0,29.94,WSW,254,1.0,1.0,59,0.00,,CLR,0.00,VWS V14.01,2013-10-29 18:26:00,
2013-10-29 11:27:00,51.0,37.6,29.94,WSW,254,3.0,3.0,60,0.00,,CLR,0.00,VWS V14.01,2013-10-29 18:27:00,
2013-10-29 11:31:00,51.1,36.4,29.94,WSW,253,2.0,3.0,57,0.00,,CLR,0.00,VWS V14.01,2013-10-29 18:31:00,
2013-10-29 11:32:00,51.3,37.0,29.94,WSW,253,0.0,2.0,58,0.00,,CLR,0.00,VWS V14.01,2013-10-29 18:32:00,
2013-10-29 11:33:00,51.4,36.7,29.94,WSW,253,0.0,2.0,57,0.00,,CLR,0.00,VWS V14.01,2013-10-29 18:33:00,
2013-10-29 11:34:00,51.6,36.9,29.94,WSW,253,0.0,2.0,57,0.00,,CLR,0.00,VWS V14.01,2013-10-29 18:34:00,
2013-10-29 11:35:00,51.7,36.5,29.94,WSW,253,0.0,2.0,56,0.00,,CLR,0.00,VWS V14.01,2013-10-29 18:35:00,
2013-10-29 11:36:00,51.7,36.5,29.94,WSW,253,1.0,2.0,56,0.00,,CLR,0.00,VWS V14.01,2013-10-29 18:36:00,
2013-10-29 11:38:00,51.9,35.8,29.94,WSW,253,2.0,3.0,54,0.00,,CLR,0.00,VWS V14.01,2013-10-29 18:38:00,
2013-10-29 11:41:00,51.9,35.3,29.94,WSW,253,1.0,3.0,53,0.00,,CLR,0.00,VWS V14.01,2013-10-29 18:41:00,
2013-10-29 11:43:00,51.9,35.3,29.94,WSW,253,0.0,2.0,53,0.00,,CLR,0.00,VWS V14.01,2013-10-29 18:43:00,
2013-10-29 11:44:00,51.9,35.3,29.94,WSW,253,2.0,2.0,53,0.00,,CLR,0.00,VWS V14.01,2013-10-29 18:44:00,
2013-10-29 11:46:00,51.9,35.3,29.95,WSW,253,2.0,3.0,53,0.00,,CLR,0.00,VWS V14.01,2013-10-29 18:46:00,
2013-10-29 11:49:00,52.2,35.1,29.95,WSW,253,2.0,4.0,52,0.00,,CLR,0.00,VWS V14.01,2013-10-29 18:49:00,
2013-10-29 11:51:00,52.2,35.6,29.95,WSW,253,0.0,1.0,53,0.00,,CLR,0.00,VWS V14.01,2013-10-29 18:51:00,
2013-10-29 11:54:00,52.5,36.3,29.95,WSW,253,0.0,2.0,54,0.00,,CLR,0.00,VWS V14.01,2013-10-29 18:54:00,
2013-10-29 11:55:00,52.6,36.9,29.95,WSW,253,0.0,2.0,55,0.00,,CLR,0.00,VWS V14.01,2013-10-29 18:55:00,
2013-10-29 11:56:00,52.6,36.9,29.95,WSW,253,1.0,2.0,55,0.00,,CLR,0.00,VWS V14.01,2013-10-29 18:56:00,
2013-10-29 11:58:00,52.8,35.2,29.95,SW,232,3.0,4.0,51,0.00,,CLR,0.00,VWS V14.01,2013-10-29 18:58:00,
2013-10-29 11:59:00,52.8,34.7,29.95,SW,232,2.0,4.0,50,0.00,,CLR,0.00,VWS V14.01,2013-10-29 18:59:00,
2013-10-29 12:01:00,52.9,35.8,29.95,SW,232,0.0,4.0,52,0.00,,CLR,0.00,VWS V14.01,2013-10-29 19:01:00,
2013-10-29 12:04:00,53.1,35.0,29.95,SW,232,0.0,0.0,50,0.00,,CLR,0.00,VWS V14.01,2013-10-29 19:04:00,
2013-10-29 12:05:00,53.2,35.6,29.95,SW,232,0.0,1.0,51,0.00,,CLR,0.00,VWS V14.01,2013-10-29 19:05:00,
2013-10-29 12:06:00,53.2,35.1,29.95,SW,232,0.0,0.0,50,0.00,,CLR,0.00,VWS V14.01,2013-10-29 19:06:00,
2013-10-29 12:07:00,53.3,35.2,29.95,SW,232,0.0,0.0,50,0.00,,CLR,0.00,VWS V14.01,2013-10-29 19:07:00,
2013-10-29 12:08:00,53.5,35.3,29.95,SW,232,0.0,0.0,50,0.00,,CLR,0.00,VWS V14.01,2013-10-29 19:08:00,
2013-10-29 12:09:00,53.6,35.4,29.95,SW,232,1.0,1.0,50,0.00,,CLR,0.00,VWS V14.01,2013-10-29 19:09:00,
2013-10-29 12:10:00,53.8,35.1,29.95,SW,232,1.0,3.0,49,0.00,,CLR,0.00,VWS V14.01,2013-10-29 19:10:00,
2013-10-29 12:13:00,53.6,34.4,29.95,SSE,155,1.0,3.0,48,0.00,,CLR,0.00,VWS V14.01,2013-10-29 19:13:00,
2013-10-29 12:14:00,53.6,34.4,29.95,SSE,155,1.0,3.0,48,0.00,,CLR,0.00,VWS V14.01,2013-10-29 19:14:00,
2013-10-29 12:15:00,53.6,34.9,29.94,SSE,155,0.0,3.0,49,0.00,,CLR,0.00,VWS V14.01,2013-10-29 19:15:00,
2013-10-29 12:16:00,53.8,35.1,29.94,SSE,155,0.0,3.0,49,0.00,,CLR,0.00,VWS V14.01,2013-10-29 19:16:00,
2013-10-29 12:19:00,53.9,36.2,29.94,SW,222,0.0,5.0,51,0.00,,CLR,0.00,VWS V14.01,2013-10-29 19:19:00,
2013-10-29 12:20:00,53.9,36.2,29.94,SW,222,0.0,5.0,51,0.00,,CLR,0.00,VWS V14.01,2013-10-29 19:20:00,
2013-10-29 12:21:00,53.9,36.2,29.94,SW,222,0.0,0.0,51,0.00,,CLR,0.00,VWS V14.01,2013-10-29 19:21:00,
2013-10-29 12:22:00,54.1,36.4,29.94,SW,222,3.0,3.0,51,0.00,,CLR,0.00,VWS V14.01,2013-10-29 19:22:00,
2013-10-29 12:24:00,54.1,36.4,29.94,SW,222,2.0,3.0,51,0.00,,CLR,0.00,VWS V14.01,2013-10-29 19:24:00,
2013-10-29 12:26:00,54.1,35.9,29.94,SW,222,0.0,0.0,50,0.00,,CLR,0.00,VWS V14.01,2013-10-29 19:26:00,
2013-10-29 12:27:00,54.1,36.9,29.94,SW,222,1.0,1.0,52,0.00,,CLR,0.00,VWS V14.01,2013-10-29 19:27:00,
2013-10-29 12:28:00,54.2,36.5,29.94,SW,222,0.0,1.0,51,0.00,,CLR,0.00,VWS V14.01,2013-10-29 19:28:00,
2013-10-29 12:32:00,54.2,36.0,29.94,South,181,1.0,3.0,50,0.00,,CLR,0.00,VWS V14.01,2013-10-29 19:32:00,
2013-10-29 12:33:00,54.2,35.5,29.94,South,181,1.0,3.0,49,0.00,,CLR,0.00,VWS V14.01,2013-10-29 19:33:00,
2013-10-29 12:34:00,54.2,35.5,29.94,South,184,2.0,3.0,49,0.00,,CLR,0.00,VWS V14.01,2013-10-29 19:34:00,
2013-10-29 12:35:00,54.2,35.5,29.94,South,176,1.0,3.0,49,0.00,,CLR,0.00,VWS V14.01,2013-10-29 19:35:00,
2013-10-29 12:36:00,54.2,36.0,29.94,South,176,1.0,3.0,50,0.00,,CLR,0.00,VWS V14.01,2013-10-29 19:36:00,
2013-10-29 12:39:00,54.2,35.5,29.94,SE,126,0.0,3.0,49,0.00,,CLR,0.00,VWS V14.01,2013-10-29 19:39:00,
2013-10-29 12:41:00,54.2,35.5,29.94,SE,126,0.0,3.0,49,0.00,,CLR,0.00,VWS V14.01,2013-10-29 19:41:00,
2013-10-29 12:45:00,54.5,35.8,29.93,SE,127,1.0,1.0,49,0.00,,CLR,0.00,VWS V14.01,2013-10-29 19:45:00,
2013-10-29 12:46:00,54.5,35.8,29.93,SE,140,2.0,2.0,49,0.00,,CLR,0.00,VWS V14.01,2013-10-29 19:46:00,
2013-10-29 12:47:00,54.5,35.2,29.93,SE,140,0.0,3.0,48,0.00,,CLR,0.00,VWS V14.01,2013-10-29 19:47:00,
2013-10-29 12:51:00,54.7,35.4,29.93,SW,236,2.0,3.0,48,0.00,,CLR,0.00,VWS V14.01,2013-10-29 19:51:00,
2013-10-29 12:55:00,54.5,34.7,29.93,ESE,107,3.0,7.0,47,0.00,,CLR,0.00,VWS V14.01,2013-10-29 19:55:00,
2013-10-29 12:56:00,54.5,34.7,29.93,SE,130,3.0,7.0,47,0.00,,CLR,0.00,VWS V14.01,2013-10-29 19:56:00,
2013-10-29 12:58:00,54.2,35.0,29.93,East,99,0.0,3.0,48,0.00,,CLR,0.00,VWS V14.01,2013-10-29 19:58:00,
2013-10-29 12:59:00,54.2,35.0,29.93,ENE,73,0.0,3.0,48,0.00,,CLR,0.00,VWS V14.01,2013-10-29 19:59:00,
2013-10-29 13:00:00,54.1,35.4,29.93,ENE,73,0.0,3.0,49,0.00,,CLR,0.00,VWS V14.01,2013-10-29 20:00:00,
2013-10-29 13:01:00,54.1,34.9,29.93,ENE,73,0.0,0.0,48,0.00,,CLR,0.00,VWS V14.01,2013-10-29 20:01:00,
2013-10-29 13:02:00,53.9,35.2,29.93,ENE,73,0.0,0.0,49,0.00,,CLR,0.00,VWS V14.01,2013-10-29 20:02:00,
2013-10-29 13:04:00,54.1,35.4,29.93,ENE,78,0.0,0.0,49,0.00,,CLR,0.00,VWS V14.01,2013-10-29 20:04:00,
2013-10-29 13:06:00,54.1,34.9,29.93,South,171,0.0,0.0,48,0.00,,CLR,0.00,VWS V14.01,2013-10-29 20:06:00,
2013-10-29 13:08:00,54.2,35.0,29.93,South,175,0.0,0.0,48,0.00,,CLR,0.00,VWS V14.01,2013-10-29 20:08:00,
2013-10-29 13:09:00,54.2,35.0,29.93,South,175,0.0,0.0,48,0.00,,CLR,0.00,VWS V14.01,2013-10-29 20:09:00,
2013-10-29 13:10:00,54.4,35.1,29.93,ESE,109,2.0,2.0,48,0.00,,CLR,0.00,VWS V14.01,2013-10-29 20:10:00,
2013-10-29 13:11:00,54.4,34.6,29.93,SW,236,0.0,2.0,47,0.00,,CLR,0.00,VWS V14.01,2013-10-29 20:11:00,
2013-10-29 13:14:00,54.5,34.7,29.93,West,263,0.0,3.0,47,0.00,,CLR,0.00,VWS V14.01,2013-10-29 20:14:00,
2013-10-29 13:16:00,54.7,34.9,29.92,SE,138,2.0,3.0,47,0.00,,CLR,0.00,VWS V14.01,2013-10-29 20:16:00,
2013-10-29 13:18:00,54.7,34.9,29.92,SE,136,0.0,3.0,47,0.00,,CLR,0.00,VWS V14.01,2013-10-29 20:18:00,
2013-10-29 13:19:00,54.7,34.3,29.92,SE,124,5.0,6.0,46,0.00,,CLR,0.00,VWS V14.01,2013-10-29 20:19:00,
2013-10-29 13:22:00,54.5,34.2,29.92,WSW,237,0.0,4.0,46,0.00,,CLR,0.00,VWS V14.01,2013-10-29 20:22:00,
2013-10-29 13:24:00,54.7,33.8,29.92,WSW,239,2.0,6.0,45,0.00,,CLR,0.00,VWS V14.01,2013-10-29 20:24:00,
2013-10-29 13:25:00,54.7,33.8,29.92,WSW,239,5.0,6.0,45,0.00,,CLR,0.00,VWS V14.01,2013-10-29 20:25:00,
2013-10-29 13:26:00,54.7,33.8,29.92,SW,220,2.0,6.0,45,0.00,,CLR,0.00,VWS V14.01,2013-10-29 20:26:00,
2013-10-29 13:28:00,54.7,34.3,29.92,SW,220,0.0,6.0,46,0.00,,CLR,0.00,VWS V14.01,2013-10-29 20:28:00,
2013-10-29 13:29:00,54.7,34.9,29.92,WSW,248,4.0,6.0,47,0.00,,CLR,0.00,VWS V14.01,2013-10-29 20:29:00,
2013-10-29 13:30:00,54.8,34.4,29.92,WSW,248,3.0,6.0,46,0.00,,CLR,0.00,VWS V14.01,2013-10-29 20:30:00,
2013-10-29 13:31:00,54.8,35.0,29.92,WSW,247,5.0,6.0,47,0.00,,CLR,0.00,VWS V14.01,2013-10-29 20:31:00,
2013-10-29 13:33:00,54.8,34.4,29.92,WSW,246,2.0,5.0,46,0.00,,CLR,0.00,VWS V14.01,2013-10-29 20:33:00,
2013-10-29 13:36:00,54.8,33.9,29.92,SSW,202,1.0,6.0,45,0.00,,CLR,0.00,VWS V14.01,2013-10-29 20:36:00,
2013-10-29 13:37:00,54.8,33.9,29.92,WSW,254,2.0,3.0,45,0.00,,CLR,0.00,VWS V14.01,2013-10-29 20:37:00,
2013-10-29 13:38:00,54.8,33.9,29.92,WSW,254,0.0,3.0,45,0.00,,CLR,0.00,VWS V14.01,2013-10-29 20:38:00,
2013-10-29 13:40:00,54.8,33.9,29.92,WSW,254,0.0,3.0,45,0.00,,CLR,0.00,VWS V14.01,2013-10-29 20:40:00,
2013-10-29 13:42:00,55.0,34.6,29.92,WSW,254,3.0,3.0,46,0.00,,CLR,0.00,VWS V14.01,2013-10-29 20:42:00,
2013-10-29 13:44:00,55.1,35.2,29.92,SW,219,6.0,6.0,47,0.00,,CLR,0.00,VWS V14.01,2013-10-29 20:44:00,
2013-10-29 13:45:00,55.1,34.2,29.92,WSW,248,5.0,6.0,45,0.00,,CLR,0.00,VWS V14.01,2013-10-29 20:45:00,
2013-10-29 13:46:00,55.1,33.6,29.92,SW,219,6.0,8.0,44,0.00,,CLR,0.00,VWS V14.01,2013-10-29 20:46:00,
2013-10-29 13:47:00,55.1,33.6,29.92,SW,229,5.0,7.0,44,0.00,,CLR,0.00,VWS V14.01,2013-10-29 20:47:00,
2013-10-29 13:49:00,55.0,33.5,29.92,SW,232,3.0,8.0,44,0.00,,CLR,0.00,VWS V14.01,2013-10-29 20:49:00,
2013-10-29 13:51:00,55.0,34.1,29.92,WSW,251,2.0,8.0,45,0.00,,CLR,0.00,VWS V14.01,2013-10-29 20:51:00,
2013-10-29 13:52:00,54.8,33.9,29.92,WSW,250,2.0,4.0,45,0.00,,CLR,0.00,VWS V14.01,2013-10-29 20:52:00,
2013-10-29 13:53:00,54.8,33.3,29.92,WSW,243,4.0,5.0,44,0.00,,CLR,0.00,VWS V14.01,2013-10-29 20:53:00,
2013-10-29 13:54:00,54.8,33.9,29.92,WSW,241,3.0,5.0,45,0.00,,CLR,0.00,VWS V14.01,2013-10-29 20:54:00,
2013-10-29 13:56:00,54.8,33.3,29.92,WSW,240,2.0,5.0,44,0.00,,CLR,0.00,VWS V14.01,2013-10-29 20:56:00,
2013-10-29 13:57:00,55.0,34.6,29.92,WSW,240,0.0,2.0,46,0.00,,CLR,0.00,VWS V14.01,2013-10-29 20:57:00,
2013-10-29 13:58:00,55.0,34.6,29.92,WSW,240,2.0,2.0,46,0.00,,CLR,0.00,VWS V14.01,2013-10-29 20:58:00,
2013-10-29 14:01:00,55.1,33.6,29.91,WSW,240,0.0,3.0,44,0.00,,CLR,0.00,VWS V14.01,2013-10-29 21:01:00,
2013-10-29 14:03:00,55.3,33.2,29.91,SW,226,5.0,7.0,43,0.00,,CLR,0.00,VWS V14.01,2013-10-29 21:03:00,
2013-10-29 14:04:00,55.3,33.2,29.91,SSW,199,2.0,7.0,43,0.00,,CLR,0.00,VWS V14.01,2013-10-29 21:04:00,
2013-10-29 14:06:00,55.3,33.2,29.91,SW,233,6.0,8.0,43,0.00,,CLR,0.00,VWS V14.01,2013-10-29 21:06:00,
2013-10-29 14:07:00,55.3,33.2,29.91,West,261,3.0,5.0,43,0.00,,CLR,0.00,VWS V14.01,2013-10-29 21:07:00,
2013-10-29 14:08:00,55.3,33.8,29.91,WSW,248,8.0,8.0,44,0.00,,CLR,0.00,VWS V14.01,2013-10-29 21:08:00,
2013-10-29 14:09:00,55.4,33.3,29.91,WSW,254,6.0,8.0,43,0.00,,CLR,0.00,VWS V14.01,2013-10-29 21:09:00,
2013-10-29 14:11:00,55.4,33.3,29.91,WSW,241,3.0,8.0,43,0.00,,CLR,0.00,VWS V14.01,2013-10-29 21:11:00,
2013-10-29 14:12:00,55.4,33.3,29.91,SW,226,4.0,6.0,43,0.00,,CLR,0.00,VWS V14.01,2013-10-29 21:12:00,
2013-10-29 14:13:00,55.4,33.3,29.91,SW,226,3.0,6.0,43,0.00,,CLR,0.00,VWS V14.01,2013-10-29 21:13:00,
2013-10-29 14:15:00,55.4,33.3,29.91,SW,215,0.0,6.0,43,0.00,,CLR,0.00,VWS V14.01,2013-10-29 21:15:00,
2013-10-29 14:19:00,55.7,34.1,29.91,WSW,251,6.0,6.0,44,0.00,,CLR,0.00,VWS V14.01,2013-10-29 21:19:00,
2013-10-29 14:21:00,55.7,34.1,29.91,SW,223,3.0,9.0,44,0.00,,CLR,0.00,VWS V14.01,2013-10-29 21:21:00,
2013-10-29 14:22:00,55.7,34.1,29.91,SW,224,0.0,5.0,44,0.00,,CLR,0.00,VWS V14.01,2013-10-29 21:22:00,
2013-10-29 14:23:00,55.9,33.8,29.91,SW,219,1.0,7.0,43,0.00,,CLR,0.00,VWS V14.01,2013-10-29 21:23:00,
2013-10-29 14:24:00,55.9,34.9,29.91,SW,219,0.0,7.0,45,0.00,,CLR,0.00,VWS V14.01,2013-10-29 21:24:00,
2013-10-29 14:27:00,56.0,33.2,29.91,SE,138,3.0,3.0,42,0.00,,CLR,0.00,VWS V14.01,2013-10-29 21:27:00,
2013-10-29 14:29:00,56.0,34.4,29.91,SSW,202,1.0,3.0,44,0.00,,CLR,0.00,VWS V14.01,2013-10-29 21:29:00,
2013-10-29 14:31:00,56.0,33.8,29.91,SSW,202,0.0,3.0,43,0.00,,CLR,0.00,VWS V14.01,2013-10-29 21:31:00,
2013-10-29 14:32:00,56.2,34.0,29.91,SSW,202,2.0,2.0,43,0.00,,CLR,0.00,VWS V14.01,2013-10-29 21:32:00,
2013-10-29 14:36:00,56.3,34.1,29.91,ESE,107,2.0,5.0,43,0.00,,CLR,0.00,VWS V14.01,2013-10-29 21:36:00,
2013-10-29 14:37:00,56.3,34.7,29.91,ESE,109,0.0,2.0,44,0.00,,CLR,0.00,VWS V14.01,2013-10-29 21:37:00,
2013-10-29 14:38:00,56.3,34.7,29.91,ESE,110,1.0,2.0,44,0.00,,CLR,0.00,VWS V14.01,2013-10-29 21:38:00,
2013-10-29 14:39:00,56.5,34.9,29.91,SSW,208,2.0,3.0,44,0.00,,CLR,0.00,VWS V14.01,2013-10-29 21:39:00,
2013-10-29 14:42:00,56.6,35.0,29.91,WSW,256,2.0,2.0,44,0.00,,CLR,0.00,VWS V14.01,2013-10-29 21:42:00,
2013-10-29 14:43:00,56.6,35.0,29.91,WSW,256,2.0,2.0,44,0.00,,CLR,0.00,VWS V14.01,2013-10-29 21:43:00,
2013-10-29 14:44:00,56.7,35.0,29.91,WSW,256,0.0,2.0,44,0.00,,CLR,0.00,VWS V14.01,2013-10-29 21:44:00,
2013-10-29 14:48:00,57.0,35.9,29.91,WSW,256,0.0,0.0,45,0.00,,CLR,0.00,VWS V14.01,2013-10-29 21:48:00,
2013-10-29 14:50:00,57.3,35.6,29.91,WSW,241,6.0,6.0,44,0.00,,CLR,0.00,VWS V14.01,2013-10-29 21:50:00,
2013-10-29 14:51:00,57.3,35.0,29.91,South,185,2.0,6.0,43,0.00,,CLR,0.00,VWS V14.01,2013-10-29 21:51:00,
2013-10-29 14:53:00,57.3,36.2,29.91,SW,233,6.0,8.0,45,0.00,,CLR,0.00,VWS V14.01,2013-10-29 21:53:00,
2013-10-29 14:54:00,57.3,35.0,29.91,SW,215,2.0,8.0,43,0.00,,CLR,0.00,VWS V14.01,2013-10-29 21:54:00,
2013-10-29 14:55:00,57.3,35.0,29.91,SW,216,3.0,8.0,43,0.00,,CLR,0.00,VWS V14.01,2013-10-29 21:55:00,
2013-10-29 14:56:00,57.2,34.9,29.91,West,264,2.0,2.0,43,0.00,,CLR,0.00,VWS V14.01,2013-10-29 21:56:00,
2013-10-29 14:57:00,57.2,35.5,29.91,WSW,256,6.0,6.0,44,0.00,,CLR,0.00,VWS V14.01,2013-10-29 21:57:00,
2013-10-29 14:58:00,57.0,34.8,29.91,West,278,4.0,9.0,43,0.00,,CLR,0.00,VWS V14.01,2013-10-29 21:58:00,
2013-10-29 14:59:00,57.0,34.8,29.91,West,263,3.0,9.0,43,0.00,,CLR,0.00,VWS V14.01,2013-10-29 21:59:00,
2013-10-29 15:03:00,56.6,36.6,29.91,West,260,2.0,7.0,47,0.00,,CLR,0.00,VWS V14.01,2013-10-29 22:03:00,
2013-10-29 15:04:00,56.6,35.0,29.91,WNW,289,4.0,7.0,44,0.00,,CLR,0.00,VWS V14.01,2013-10-29 22:04:00,
2013-10-29 15:05:00,56.6,35.5,29.91,WNW,295,3.0,7.0,45,0.00,,CLR,0.00,VWS V14.01,2013-10-29 22:05:00,
2013-10-29 15:06:00,56.6,35.5,29.91,WNW,295,0.0,0.0,45,0.00,,CLR,0.00,VWS V14.01,2013-10-29 22:06:00,
2013-10-29 15:08:00,56.6,36.1,29.91,NW,316,3.0,3.0,46,0.00,,CLR,0.00,VWS V14.01,2013-10-29 22:08:00,
2013-10-29 15:09:00,56.6,35.0,29.91,WSW,246,6.0,6.0,44,0.00,,CLR,0.00,VWS V14.01,2013-10-29 22:09:00,
2013-10-29 15:11:00,56.5,33.7,29.91,WSW,244,5.0,6.0,42,0.00,,CLR,0.00,VWS V14.01,2013-10-29 22:11:00,
2013-10-29 15:13:00,56.3,33.5,29.91,SW,236,2.0,8.0,42,0.00,,CLR,0.00,VWS V14.01,2013-10-29 22:13:00,
2013-10-29 15:14:00,56.3,32.9,29.91,WSW,250,2.0,8.0,41,0.00,,CLR,0.00,VWS V14.01,2013-10-29 22:14:00,
2013-10-29 15:18:00,56.2,34.6,29.92,SW,229,4.0,7.0,44,0.00,,CLR,0.00,VWS V14.01,2013-10-29 22:18:00,
2013-10-29 15:19:00,56.0,35.0,29.92,SW,233,0.0,7.0,45,0.00,,CLR,0.00,VWS V14.01,2013-10-29 22:19:00,
2013-10-29 15:20:00,56.0,36.1,29.92,SW,233,0.0,7.0,47,0.00,,CLR,0.00,VWS V14.01,2013-10-29 22:20:00,
2013-10-29 15:21:00,56.2,36.3,29.92,WNW,287,4.0,4.0,47,0.00,,CLR,0.00,VWS V14.01,2013-10-29 22:21:00,
2013-10-29 15:22:00,56.0,36.6,29.92,NW,312,2.0,4.0,48,0.00,,CLR,0.00,VWS V14.01,2013-10-29 22:22:00,
2013-10-29 15:25:00,56.0,36.6,29.92,NW,318,5.0,5.0,48,0.00,,CLR,0.00,VWS V14.01,2013-10-29 22:25:00,
2013-10-29 15:26:00,56.0,36.6,29.92,WNW,294,0.0,5.0,48,0.00,,CLR,0.00,VWS V14.01,2013-10-29 22:26:00,
2013-10-29 15:27:00,55.9,37.0,29.92,WNW,289,0.0,1.0,49,0.00,,CLR,0.00,VWS V14.01,2013-10-29 22:27:00,
2013-10-29 15:28:00,55.9,37.0,29.92,WSW,257,2.0,5.0,49,0.00,,CLR,0.00,VWS V14.01,2013-10-29 22:28:00,
2013-10-29 15:29:00,55.9,37.0,29.92,West,261,1.0,5.0,49,0.00,,CLR,0.00,VWS V14.01,2013-10-29 22:29:00,
2013-10-29 15:30:00,55.9,36.5,29.92,WNW,291,2.0,5.0,48,0.00,,CLR,0.00,VWS V14.01,2013-10-29 22:30:00,
2013-10-29 15:32:00,55.7,36.8,29.92,WSW,258,6.0,8.0,49,0.00,,CLR,0.00,VWS V14.01,2013-10-29 22:32:00,
2013-10-29 15:33:00,55.7,36.3,29.92,WSW,258,3.0,8.0,48,0.00,,CLR,0.00,VWS V14.01,2013-10-29 22:33:00,
2013-10-29 15:34:00,55.6,36.8,29.92,West,264,0.0,8.0,49,0.00,,CLR,0.00,VWS V14.01,2013-10-29 22:34:00,
2013-10-29 15:36:00,55.6,36.8,29.92,West,272,5.0,8.0,49,0.00,,CLR,0.00,VWS V14.01,2013-10-29 22:36:00,
2013-10-29 15:38:00,55.4,36.6,29.92,SW,224,3.0,5.0,49,0.00,,CLR,0.00,VWS V14.01,2013-10-29 22:38:00,
2013-10-29 15:39:00,55.4,37.1,29.92,WSW,246,5.0,5.0,50,0.00,,CLR,0.00,VWS V14.01,2013-10-29 22:39:00,
2013-10-29 15:41:00,55.4,36.1,29.92,SW,234,2.0,5.0,48,0.00,,CLR,0.00,VWS V14.01,2013-10-29 22:41:00,
2013-10-29 15:42:00,55.4,36.6,29.92,SW,234,3.0,5.0,49,0.00,,CLR,0.00,VWS V14.01,2013-10-29 22:42:00,
2013-10-29 15:45:00,55.4,36.6,29.92,WSW,237,2.0,7.0,49,0.00,,CLR,0.00,VWS V14.01,2013-10-29 22:45:00,
2013-10-29 15:46:00,55.4,36.6,29.92,WSW,237,0.0,7.0,49,0.00,,CLR,0.00,VWS V14.01,2013-10-29 22:46:00,
2013-10-29 15:47:00,55.4,36.6,29.92,WSW,237,2.0,3.0,49,0.00,,CLR,0.00,VWS V14.01,2013-10-29 22:47:00,
2013-10-29 15:48:00,55.4,36.1,29.92,WSW,237,2.0,3.0,48,0.00,,CLR,0.00,VWS V14.01,2013-10-29 22:48:00,
2013-10-29 15:50:00,55.4,36.1,29.92,WSW,240,2.0,7.0,48,0.00,,CLR,0.00,VWS V14.01,2013-10-29 22:50:00,
2013-10-29 15:51:00,55.4,36.1,29.92,SW,234,4.0,7.0,48,0.00,,CLR,0.00,VWS V14.01,2013-10-29 22:51:00,
2013-10-29 15:54:00,55.4,36.1,29.92,WSW,251,3.0,5.0,48,0.00,,CLR,0.00,VWS V14.01,2013-10-29 22:54:00,
2013-10-29 15:55:00,55.4,36.1,29.92,WSW,250,2.0,5.0,48,0.00,,CLR,0.00,VWS V14.01,2013-10-29 22:55:00,
2013-10-29 15:58:00,55.6,36.2,29.92,West,264,2.0,3.0,48,0.00,,CLR,0.00,VWS V14.01,2013-10-29 22:58:00,
2013-10-29 16:00:00,55.6,35.2,29.92,SW,234,3.0,3.0,46,0.00,,CLR,0.00,VWS V14.01,2013-10-29 23:00:00,
2013-10-29 16:01:00,55.6,35.2,29.92,SW,234,1.0,4.0,46,0.00,,CLR,0.00,VWS V14.01,2013-10-29 23:01:00,
2013-10-29 16:02:00,55.6,35.2,29.92,SW,234,1.0,2.0,46,0.00,,CLR,0.00,VWS V14.01,2013-10-29 23:02:00,
2013-10-29 16:03:00,55.7,35.3,29.92,SW,234,2.0,2.0,46,0.00,,CLR,0.00,VWS V14.01,2013-10-29 23:03:00,
2013-10-29 16:06:00,55.7,35.3,29.92,NNW,333,0.0,2.0,46,0.00,,CLR,0.00,VWS V14.01,2013-10-29 23:06:00,
2013-10-29 16:07:00,55.7,35.8,29.92,NNW,333,0.0,1.0,47,0.00,,CLR,0.00,VWS V14.01,2013-10-29 23:07:00,
2013-10-29 16:08:00,55.7,35.8,29.92,SW,226,3.0,3.0,47,0.00,,CLR,0.00,VWS V14.01,2013-10-29 23:08:00,
2013-10-29 16:11:00,55.9,36.0,29.92,SW,226,0.0,3.0,47,0.00,,CLR,0.00,VWS V14.01,2013-10-29 23:11:00,
2013-10-29 16:14:00,55.9,35.4,29.92,SW,226,0.0,2.0,46,0.00,,CLR,0.00,VWS V14.01,2013-10-29 23:14:00,
2013-10-29 16:16:00,55.9,35.4,29.92,SW,226,0.0,2.0,46,0.00,,CLR,0.00,VWS V14.01,2013-10-29 23:16:00,
2013-10-29 16:17:00,56.0,35.5,29.92,SW,226,0.0,1.0,46,0.00,,CLR,0.00,VWS V14.01,2013-10-29 23:17:00,
2013-10-29 16:18:00,56.0,35.5,29.92,SW,226,3.0,3.0,46,0.00,,CLR,0.00,VWS V14.01,2013-10-29 23:18:00,
2013-10-29 16:19:00,56.0,35.0,29.92,WSW,237,5.0,6.0,45,0.00,,CLR,0.00,VWS V14.01,2013-10-29 23:19:00,
2013-10-29 16:21:00,56.0,33.8,29.92,WSW,237,4.0,5.0,43,0.00,,CLR,0.00,VWS V14.01,2013-10-29 23:21:00,
2013-10-29 16:22:00,56.0,33.2,29.92,WSW,237,3.0,5.0,42,0.00,,CLR,0.00,VWS V14.01,2013-10-29 23:22:00,
2013-10-29 16:25:00,56.0,32.7,29.92,West,263,5.0,5.0,41,0.00,,CLR,0.00,VWS V14.01,2013-10-29 23:25:00,
2013-10-29 16:26:00,56.0,32.7,29.92,West,263,1.0,5.0,41,0.00,,CLR,0.00,VWS V14.01,2013-10-29 23:26:00,
2013-10-29 16:27:00,55.9,33.2,29.92,West,263,2.0,2.0,42,0.00,,CLR,0.00,VWS V14.01,2013-10-29 23:27:00,
2013-10-29 16:30:00,55.9,32.6,29.92,WSW,258,2.0,5.0,41,0.00,,CLR,0.00,VWS V14.01,2013-10-29 23:30:00,
2013-10-29 16:32:00,55.9,33.2,29.92,WSW,258,1.0,2.0,42,0.00,,CLR,0.00,VWS V14.01,2013-10-29 23:32:00,
2013-10-29 16:33:00,55.9,33.8,29.92,WSW,258,3.0,3.0,43,0.00,,CLR,0.00,VWS V14.01,2013-10-29 23:33:00,
2013-10-29 16:36:00,55.7,33.0,29.92,WSW,258,1.0,3.0,42,0.00,,CLR,0.00,VWS V14.01,2013-10-29 23:36:00,
2013-10-29 16:37:00,55.7,33.0,29.92,WSW,258,0.0,1.0,42,0.00,,CLR,0.00,VWS V14.01,2013-10-29 23:37:00,
2013-10-29 16:39:00,55.7,33.6,29.92,WSW,258,0.0,1.0,43,0.00,,CLR,0.00,VWS V14.01,2013-10-29 23:39:00,
2013-10-29 16:41:00,55.7,33.6,29.92,WSW,258,0.0,1.0,43,0.00,,CLR,0.00,VWS V14.01,2013-10-29 23:41:00,
2013-10-29 16:43:00,55.7,34.1,29.92,WSW,258,0.0,0.0,44,0.00,,CLR,0.00,VWS V14.01,2013-10-29 23:43:00,
2013-10-29 16:44:00,55.9,34.3,29.92,WSW,258,0.0,0.0,44,0.00,,CLR,0.00,VWS V14.01,2013-10-29 23:44:00,
2013-10-29 16:45:00,55.9,33.8,29.92,WSW,258,2.0,2.0,43,0.00,,CLR,0.00,VWS V14.01,2013-10-29 23:45:00,
2013-10-29 16:46:00,55.9,33.2,29.92,WSW,258,0.0,2.0,42,0.00,,CLR,0.00,VWS V14.01,2013-10-29 23:46:00,
2013-10-29 16:49:00,56.0,33.2,29.92,WSW,258,5.0,5.0,42,0.00,,CLR,0.00,VWS V14.01,2013-10-29 23:49:00,
2013-10-29 16:51:00,56.0,32.7,29.92,WSW,258,1.0,2.0,41,0.00,,CLR,0.00,VWS V14.01,2013-10-29 23:51:00,
2013-10-29 16:53:00,56.0,32.7,29.92,WSW,258,1.0,2.0,41,0.00,,CLR,0.00,VWS V14.01,2013-10-29 23:53:00,
2013-10-29 16:54:00,56.0,32.7,29.92,WSW,258,0.0,2.0,41,0.00,,CLR,0.00,VWS V14.01,2013-10-29 23:54:00,
2013-10-29 16:55:00,56.0,32.7,29.92,WSW,258,1.0,2.0,41,0.00,,CLR,0.00,VWS V14.01,2013-10-29 23:55:00,
2013-10-29 16:56:00,56.0,32.7,29.92,WSW,257,0.0,2.0,41,0.00,,CLR,0.00,VWS V14.01,2013-10-29 23:56:00,
2013-10-29 17:00:00,56.0,33.2,29.92,WSW,257,0.0,2.0,42,0.00,,CLR,0.00,VWS V14.01,2013-10-30 00:00:00,
2013-10-29 17:01:00,56.0,32.7,29.92,WSW,257,0.0,2.0,41,0.00,,CLR,0.00,VWS V14.01,2013-10-30 00:01:00,
2013-10-29 17:05:00,56.0,33.2,29.92,WSW,257,0.0,2.0,42,0.00,,CLR,0.00,VWS V14.01,2013-10-30 00:05:00,
2013-10-29 17:06:00,56.0,33.2,29.92,WSW,257,2.0,2.0,42,0.00,,CLR,0.00,VWS V14.01,2013-10-30 00:06:00,
2013-10-29 17:09:00,55.9,32.6,29.92,WSW,258,0.0,3.0,41,0.00,,CLR,0.00,VWS V14.01,2013-10-30 00:09:00,
2013-10-29 17:11:00,55.9,32.6,29.92,WSW,258,0.0,3.0,41,0.00,,CLR,0.00,VWS V14.01,2013-10-30 00:11:00,
2013-10-29 17:12:00,55.9,32.6,29.92,WSW,258,0.0,0.0,41,0.00,,CLR,0.00,VWS V14.01,2013-10-30 00:12:00,
2013-10-29 17:14:00,55.9,33.2,29.92,WSW,258,0.0,0.0,42,0.00,,CLR,0.00,VWS V14.01,2013-10-30 00:14:00,
2013-10-29 17:15:00,55.9,33.2,29.92,WSW,258,0.0,0.0,42,0.00,,CLR,0.00,VWS V14.01,2013-10-30 00:15:00,
2013-10-29 17:16:00,55.9,33.8,29.92,WSW,258,0.0,0.0,43,0.00,,CLR,0.00,VWS V14.01,2013-10-30 00:16:00,
2013-10-29 17:17:00,55.9,34.3,29.92,WSW,258,0.0,0.0,44,0.00,,CLR,0.00,VWS V14.01,2013-10-30 00:17:00,
2013-10-29 17:20:00,55.7,34.1,29.92,WSW,258,0.0,0.0,44,0.00,,CLR,0.00,VWS V14.01,2013-10-30 00:20:00,
2013-10-29 17:21:00,55.7,34.1,29.92,WSW,258,0.0,0.0,44,0.00,,CLR,0.00,VWS V14.01,2013-10-30 00:21:00,
2013-10-29 17:22:00,55.7,33.6,29.92,WSW,258,0.0,0.0,43,0.00,,CLR,0.00,VWS V14.01,2013-10-30 00:22:00,
2013-10-29 17:23:00,55.7,33.6,29.92,WSW,258,0.0,0.0,43,0.00,,CLR,0.00,VWS V14.01,2013-10-30 00:23:00,
2013-10-29 17:24:00,55.7,33.6,29.92,WSW,258,0.0,0.0,43,0.00,,CLR,0.00,VWS V14.01,2013-10-30 00:24:00,
2013-10-29 17:25:00,55.6,34.0,29.92,WSW,258,0.0,0.0,44,0.00,,CLR,0.00,VWS V14.01,2013-10-30 00:25:00,
2013-10-29 17:29:00,55.6,33.5,29.92,WSW,258,0.0,0.0,43,0.00,,CLR,0.00,VWS V14.01,2013-10-30 00:29:00,
2013-10-29 17:30:00,55.6,33.5,29.92,WSW,258,0.0,0.0,43,0.00,,CLR,0.00,VWS V14.01,2013-10-30 00:30:00,
2013-10-29 17:31:00,55.6,33.5,29.92,WSW,258,0.0,0.0,43,0.00,,CLR,0.00,VWS V14.01,2013-10-30 00:31:00,
2013-10-29 17:34:00,55.4,33.3,29.92,WSW,258,0.0,0.0,43,0.00,,CLR,0.00,VWS V14.01,2013-10-30 00:34:00,
2013-10-29 17:35:00,55.4,33.3,29.92,WSW,258,0.0,0.0,43,0.00,,CLR,0.00,VWS V14.01,2013-10-30 00:35:00,
2013-10-29 17:39:00,55.3,33.2,29.92,WSW,258,0.0,0.0,43,0.00,,CLR,0.00,VWS V14.01,2013-10-30 00:39:00,
2013-10-29 17:41:00,55.1,33.0,29.92,WSW,258,0.0,0.0,43,0.00,,CLR,0.00,VWS V14.01,2013-10-30 00:41:00,
2013-10-29 17:43:00,55.1,33.0,29.92,WSW,258,0.0,0.0,43,0.00,,CLR,0.00,VWS V14.01,2013-10-30 00:43:00,
2013-10-29 17:44:00,55.0,32.9,29.92,WSW,258,0.0,0.0,43,0.00,,CLR,0.00,VWS V14.01,2013-10-30 00:44:00,
2013-10-29 17:46:00,55.0,33.5,29.92,WSW,258,0.0,0.0,44,0.00,,CLR,0.00,VWS V14.01,2013-10-30 00:46:00,
2013-10-29 17:48:00,54.8,33.3,29.92,WSW,258,0.0,0.0,44,0.00,,CLR,0.00,VWS V14.01,2013-10-30 00:48:00,
2013-10-29 17:51:00,54.7,33.2,29.92,WSW,258,0.0,0.0,44,0.00,,CLR,0.00,VWS V14.01,2013-10-30 00:51:00,
2013-10-29 17:52:00,54.7,33.8,29.92,WSW,258,0.0,0.0,45,0.00,,CLR,0.00,VWS V14.01,2013-10-30 00:52:00,
2013-10-29 17:56:00,54.4,34.1,29.92,WSW,258,0.0,0.0,46,0.00,,CLR,0.00,VWS V14.01,2013-10-30 00:56:00,
2013-10-29 17:58:00,54.2,33.9,29.92,WSW,258,0.0,0.0,46,0.00,,CLR,0.00,VWS V14.01,2013-10-30 00:58:00,
2013-10-29 17:59:00,54.1,33.8,29.92,WSW,258,0.0,0.0,46,0.00,,CLR,0.00,VWS V14.01,2013-10-30 00:59:00,
2013-10-29 18:00:00,54.1,33.8,29.92,WSW,258,0.0,0.0,46,0.00,,CLR,0.00,VWS V14.01,2013-10-30 01:00:00,
2013-10-29 18:01:00,54.1,33.8,29.92,WSW,258,0.0,0.0,46,0.00,,CLR,0.00,VWS V14.01,2013-10-30 01:01:00,
2013-10-29 18:03:00,53.8,34.1,29.92,WSW,258,0.0,0.0,47,0.00,,CLR,0.00,VWS V14.01,2013-10-30 01:03:00,
2013-10-29 18:04:00,53.8,34.1,29.92,WSW,258,0.0,0.0,47,0.00,,CLR,0.00,VWS V14.01,2013-10-30 01:04:00,
2013-10-29 18:06:00,53.5,34.3,29.92,WSW,258,0.0,0.0,48,0.00,,CLR,0.00,VWS V14.01,2013-10-30 01:06:00,
2013-10-29 18:09:00,53.2,34.0,29.92,WSW,258,0.0,0.0,48,0.00,,CLR,0.00,VWS V14.01,2013-10-30 01:09:00,
2013-10-29 18:10:00,53.1,34.0,29.92,WSW,258,0.0,0.0,48,0.00,,CLR,0.00,VWS V14.01,2013-10-30 01:10:00,
2013-10-29 18:11:00,52.9,34.3,29.92,WSW,258,0.0,0.0,49,0.00,,CLR,0.00,VWS V14.01,2013-10-30 01:11:00,
2013-10-29 18:12:00,52.8,34.2,29.92,WSW,258,0.0,0.0,49,0.00,,CLR,0.00,VWS V14.01,2013-10-30 01:12:00,
2013-10-29 18:13:00,52.8,34.2,29.92,WSW,258,0.0,0.0,49,0.00,,CLR,0.00,VWS V14.01,2013-10-30 01:13:00,
2013-10-29 18:14:00,52.5,34.4,29.92,WSW,258,0.0,0.0,50,0.00,,CLR,0.00,VWS V14.01,2013-10-30 01:14:00,
2013-10-29 18:16:00,52.0,34.0,29.92,WSW,258,0.0,0.0,50,0.00,,CLR,0.00,VWS V14.01,2013-10-30 01:16:00,
2013-10-29 18:18:00,51.6,34.1,29.92,WSW,258,0.0,0.0,51,0.00,,CLR,0.00,VWS V14.01,2013-10-30 01:18:00,
2013-10-29 18:20:00,51.1,33.6,29.92,WSW,258,0.0,0.0,51,0.00,,CLR,0.00,VWS V14.01,2013-10-30 01:20:00,
2013-10-29 18:21:00,50.8,33.8,29.92,WSW,258,0.0,0.0,52,0.00,,CLR,0.00,VWS V14.01,2013-10-30 01:21:00,
2013-10-29 18:24:00,50.4,33.9,29.92,WSW,258,0.0,0.0,53,0.00,,CLR,0.00,VWS V14.01,2013-10-30 01:24:00,
2013-10-29 18:25:00,50.2,34.2,29.92,WSW,258,0.0,0.0,54,0.00,,CLR,0.00,VWS V14.01,2013-10-30 01:25:00,
2013-10-29 18:26:00,50.1,34.1,29.92,WSW,258,0.0,0.0,54,0.00,,CLR,0.00,VWS V14.01,2013-10-30 01:26:00,
2013-10-29 18:30:00,49.6,33.7,29.92,WSW,258,0.0,0.0,54,0.00,,CLR,0.00,VWS V14.01,2013-10-30 01:30:00,
2013-10-29 18:31:00,49.5,34.0,29.92,WSW,258,0.0,0.0,55,0.00,,CLR,0.00,VWS V14.01,2013-10-30 01:31:00,
2013-10-29 18:32:00,49.4,33.9,29.92,WSW,258,0.0,0.0,55,0.00,,CLR,0.00,VWS V14.01,2013-10-30 01:32:00,
2013-10-29 18:34:00,49.1,34.1,29.92,WSW,258,0.0,0.0,56,0.00,,CLR,0.00,VWS V14.01,2013-10-30 01:34:00,
2013-10-29 18:36:00,48.8,34.3,29.92,WSW,258,0.0,0.0,57,0.00,,CLR,0.00,VWS V14.01,2013-10-30 01:36:00,
2013-10-29 18:37:00,48.6,34.1,29.92,WSW,258,0.0,0.0,57,0.00,,CLR,0.00,VWS V14.01,2013-10-30 01:37:00,
2013-10-29 18:39:00,48.3,33.8,29.92,WSW,258,0.0,0.0,57,0.00,,CLR,0.00,VWS V14.01,2013-10-30 01:39:00,
2013-10-29 18:40:00,48.2,33.7,29.92,WSW,258,0.0,0.0,57,0.00,,CLR,0.00,VWS V14.01,2013-10-30 01:40:00,
2013-10-29 18:42:00,47.9,33.8,29.92,WSW,258,0.0,0.0,58,0.00,,CLR,0.00,VWS V14.01,2013-10-30 01:42:00,
2013-10-29 18:44:00,47.7,34.1,29.92,WSW,258,0.0,0.0,59,0.00,,CLR,0.00,VWS V14.01,2013-10-30 01:44:00,
2013-10-29 18:45:00,47.6,34.0,29.92,WSW,258,0.0,0.0,59,0.00,,CLR,0.00,VWS V14.01,2013-10-30 01:45:00,
2013-10-29 18:46:00,47.4,33.8,29.93,WSW,258,0.0,0.0,59,0.00,,CLR,0.00,VWS V14.01,2013-10-30 01:46:00,
2013-10-29 18:48:00,47.1,33.9,29.93,WSW,258,0.0,0.0,60,0.00,,CLR,0.00,VWS V14.01,2013-10-30 01:48:00,
2013-10-29 18:49:00,47.1,33.9,29.93,WSW,258,1.0,1.0,60,0.00,,CLR,0.00,VWS V14.01,2013-10-30 01:49:00,
2013-10-29 18:51:00,46.8,33.7,29.93,WSW,258,2.0,2.0,60,0.00,,CLR,0.00,VWS V14.01,2013-10-30 01:51:00,
2013-10-29 18:53:00,46.5,33.8,29.93,WSW,258,1.0,2.0,61,0.00,,CLR,0.00,VWS V14.01,2013-10-30 01:53:00,
2013-10-29 18:54:00,46.4,33.7,29.93,WSW,258,0.0,2.0,61,0.00,,CLR,0.00,VWS V14.01,2013-10-30 01:54:00,
2013-10-29 18:55:00,46.2,33.5,29.93,WSW,258,0.0,2.0,61,0.00,,CLR,0.00,VWS V14.01,2013-10-30 01:55:00,
2013-10-29 18:56:00,46.2,33.5,29.93,WSW,258,0.0,0.0,61,0.00,,CLR,0.00,VWS V14.01,2013-10-30 01:56:00,
2013-10-29 18:59:00,45.8,33.5,29.93,WSW,258,2.0,2.0,62,0.00,,CLR,0.00,VWS V14.01,2013-10-30 01:59:00,
2013-10-29 19:00:00,45.8,33.5,29.93,WSW,258,1.0,2.0,62,0.00,,CLR,0.00,VWS V14.01,2013-10-30 02:00:00,
2013-10-29 19:01:00,45.7,33.4,29.93,WSW,258,1.0,1.0,62,0.00,,CLR,0.00,VWS V14.01,2013-10-30 02:01:00,
2013-10-29 19:02:00,45.5,33.7,29.93,WSW,258,1.0,1.0,63,0.00,,CLR,0.00,VWS V14.01,2013-10-30 02:02:00,
2013-10-29 19:03:00,45.5,33.7,29.93,WSW,258,1.0,2.0,63,0.00,,CLR,0.00,VWS V14.01,2013-10-30 02:03:00,
2013-10-29 19:05:00,45.4,34.0,29.93,WSW,258,2.0,2.0,64,0.00,,CLR,0.00,VWS V14.01,2013-10-30 02:05:00,
2013-10-29 19:06:00,45.2,33.8,29.93,WSW,258,2.0,2.0,64,0.00,,CLR,0.00,VWS V14.01,2013-10-30 02:06:00,
2013-10-29 19:07:00,45.2,33.8,29.93,WSW,258,2.0,3.0,64,0.00,,CLR,0.00,VWS V14.01,2013-10-30 02:07:00,
2013-10-29 19:08:00,45.1,33.3,29.93,WSW,258,2.0,3.0,63,0.00,,CLR,0.00,VWS V14.01,2013-10-30 02:08:00,
2013-10-29 19:10:00,45.1,33.7,29.93,WSW,258,2.0,3.0,64,0.00,,CLR,0.00,VWS V14.01,2013-10-30 02:10:00,
2013-10-29 19:11:00,45.1,33.7,29.93,WSW,258,2.0,2.0,64,0.00,,CLR,0.00,VWS V14.01,2013-10-30 02:11:00,
2013-10-29 19:13:00,44.9,33.1,29.93,WSW,258,1.0,2.0,63,0.00,,CLR,0.00,VWS V14.01,2013-10-30 02:13:00,
2013-10-29 19:15:00,44.9,33.5,29.93,WSW,258,1.0,2.0,64,0.00,,CLR,0.00,VWS V14.01,2013-10-30 02:15:00,
2013-10-29 19:16:00,44.9,33.5,29.93,WSW,258,0.0,0.0,64,0.00,,CLR,0.00,VWS V14.01,2013-10-30 02:16:00,
2013-10-29 19:17:00,44.9,33.9,29.93,WSW,258,0.0,0.0,65,0.00,,CLR,0.00,VWS V14.01,2013-10-30 02:17:00,
2013-10-29 19:20:00,44.8,33.8,29.93,WSW,258,0.0,0.0,65,0.00,,CLR,0.00,VWS V14.01,2013-10-30 02:20:00,
2013-10-29 19:21:00,44.8,33.8,29.93,WSW,258,0.0,0.0,65,0.00,,CLR,0.00,VWS V14.01,2013-10-30 02:21:00,
2013-10-29 19:24:00,44.6,33.2,29.93,WSW,258,0.0,0.0,64,0.00,,CLR,0.00,VWS V14.01,2013-10-30 02:24:00,
2013-10-29 19:25:00,44.6,33.2,29.93,WSW,258,0.0,0.0,64,0.00,,CLR,0.00,VWS V14.01,2013-10-30 02:25:00,
2013-10-29 19:27:00,44.6,33.6,29.93,WSW,258,0.0,0.0,65,0.00,,CLR,0.00,VWS V14.01,2013-10-30 02:27:00,
2013-10-29 19:29:00,44.5,33.5,29.93,WSW,258,0.0,0.0,65,0.00,,CLR,0.00,VWS V14.01,2013-10-30 02:29:00,
2013-10-29 19:31:00,44.5,33.9,29.94,WSW,258,0.0,0.0,66,0.00,,CLR,0.00,VWS V14.01,2013-10-30 02:31:00,
2013-10-29 19:33:00,44.3,33.7,29.94,WSW,258,0.0,0.0,66,0.00,,CLR,0.00,VWS V14.01,2013-10-30 02:33:00,
2013-10-29 19:34:00,44.3,34.0,29.94,WSW,258,0.0,0.0,67,0.00,,CLR,0.00,VWS V14.01,2013-10-30 02:34:00,
2013-10-29 19:36:00,44.2,34.0,29.94,WSW,258,0.0,0.0,67,0.00,,CLR,0.00,VWS V14.01,2013-10-30 02:36:00,
2013-10-29 19:37:00,44.2,34.0,29.94,WSW,258,0.0,0.0,67,0.00,,CLR,0.00,VWS V14.01,2013-10-30 02:37:00,
2013-10-29 19:39:00,44.1,34.2,29.94,WSW,258,0.0,0.0,68,0.00,,CLR,0.00,VWS V14.01,2013-10-30 02:39:00,
2013-10-29 19:40:00,44.1,34.6,29.94,WSW,258,0.0,0.0,69,0.00,,CLR,0.00,VWS V14.01,2013-10-30 02:40:00,
2013-10-29 19:42:00,43.9,34.4,29.94,WSW,258,0.0,0.0,69,0.00,,CLR,0.00,VWS V14.01,2013-10-30 02:42:00,
2013-10-29 19:43:00,43.9,34.4,29.94,WSW,258,0.0,0.0,69,0.00,,CLR,0.00,VWS V14.01,2013-10-30 02:43:00,
2013-10-29 19:44:00,43.9,34.8,29.94,WSW,258,0.0,0.0,70,0.00,,CLR,0.00,VWS V14.01,2013-10-30 02:44:00,
2013-10-29 19:46:00,43.8,34.7,29.94,WSW,258,0.0,0.0,70,0.00,,CLR,0.00,VWS V14.01,2013-10-30 02:46:00,
2013-10-29 19:49:00,43.6,34.5,29.94,WSW,258,0.0,0.0,70,0.00,,CLR,0.00,VWS V14.01,2013-10-30 02:49:00,
2013-10-29 19:51:00,43.6,34.8,29.94,WSW,258,0.0,0.0,71,0.00,,CLR,0.00,VWS V14.01,2013-10-30 02:51:00,
2013-10-29 19:52:00,43.5,34.7,29.94,WSW,258,0.0,0.0,71,0.00,,CLR,0.00,VWS V14.01,2013-10-30 02:52:00,
2013-10-29 19:53:00,43.5,34.7,29.94,WSW,258,0.0,0.0,71,0.00,,CLR,0.00,VWS V14.01,2013-10-30 02:53:00,
2013-10-29 19:54:00,43.5,35.1,29.94,WSW,258,0.0,0.0,72,0.00,,CLR,0.00,VWS V14.01,2013-10-30 02:54:00,
2013-10-29 19:56:00,43.5,35.4,29.94,WSW,258,0.0,0.0,73,0.00,,CLR,0.00,VWS V14.01,2013-10-30 02:56:00,
2013-10-29 19:57:00,43.5,35.4,29.94,WSW,258,0.0,0.0,73,0.00,,CLR,0.00,VWS V14.01,2013-10-30 02:57:00,
2013-10-29 19:58:00,43.5,35.4,29.94,WSW,258,0.0,0.0,73,0.00,,CLR,0.00,VWS V14.01,2013-10-30 02:58:00,
2013-10-29 19:59:00,43.5,35.4,29.94,WSW,258,0.0,0.0,73,0.00,,CLR,0.00,VWS V14.01,2013-10-30 02:59:00,
2013-10-29 20:01:00,43.5,35.8,29.94,WSW,257,1.0,2.0,74,0.00,,CLR,0.00,VWS V14.01,2013-10-30 03:01:00,
2013-10-29 20:02:00,43.5,36.1,29.94,WSW,251,0.0,1.0,75,0.00,,CLR,0.00,VWS V14.01,2013-10-30 03:02:00,
2013-10-29 20:03:00,43.5,36.1,29.94,WSW,251,0.0,1.0,75,0.00,,CLR,0.00,VWS V14.01,2013-10-30 03:03:00,
2013-10-29 20:04:00,43.3,35.9,29.94,WSW,244,0.0,1.0,75,0.00,,CLR,0.00,VWS V14.01,2013-10-30 03:04:00,
2013-10-29 20:06:00,43.3,36.3,29.94,WSW,251,0.0,1.0,76,0.00,,CLR,0.00,VWS V14.01,2013-10-30 03:06:00,
2013-10-29 20:09:00,43.3,36.3,29.94,WSW,251,0.0,0.0,76,0.00,,CLR,0.00,VWS V14.01,2013-10-30 03:09:00,
2013-10-29 20:10:00,43.3,36.3,29.94,WSW,251,0.0,0.0,76,0.00,,CLR,0.00,VWS V14.01,2013-10-30 03:10:00,
2013-10-29 20:11:00,43.3,36.3,29.94,WSW,251,0.0,0.0,76,0.00,,CLR,0.00,VWS V14.01,2013-10-30 03:11:00,
2013-10-29 20:12:00,43.2,36.2,29.94,WSW,251,0.0,0.0,76,0.00,,CLR,0.00,VWS V14.01,2013-10-30 03:12:00,
2013-10-29 20:14:00,43.2,36.5,29.94,WSW,251,0.0,0.0,77,0.00,,CLR,0.00,VWS V14.01,2013-10-30 03:14:00,
2013-10-29 20:16:00,43.1,36.4,29.95,WSW,251,0.0,0.0,77,0.00,,CLR,0.00,VWS V14.01,2013-10-30 03:16:00,
2013-10-29 20:17:00,43.1,36.4,29.95,WSW,251,0.0,0.0,77,0.00,,CLR,0.00,VWS V14.01,2013-10-30 03:17:00,
2013-10-29 20:18:00,43.1,36.4,29.95,WSW,251,0.0,0.0,77,0.00,,CLR,0.00,VWS V14.01,2013-10-30 03:18:00,
2013-10-29 20:19:00,43.1,36.4,29.95,WSW,251,0.0,0.0,77,0.00,,CLR,0.00,VWS V14.01,2013-10-30 03:19:00,
2013-10-29 20:20:00,42.9,36.2,29.95,WSW,251,0.0,0.0,77,0.00,,CLR,0.00,VWS V14.01,2013-10-30 03:20:00,
2013-10-29 20:22:00,42.9,36.2,29.95,WSW,251,0.0,0.0,77,0.00,,CLR,0.00,VWS V14.01,2013-10-30 03:22:00,
2013-10-29 20:23:00,42.8,36.1,29.95,WSW,251,0.0,0.0,77,0.00,,CLR,0.00,VWS V14.01,2013-10-30 03:23:00,
2013-10-29 20:24:00,42.8,36.1,29.95,WSW,251,0.0,0.0,77,0.00,,CLR,0.00,VWS V14.01,2013-10-30 03:24:00,
2013-10-29 20:25:00,42.8,36.1,29.95,WSW,251,1.0,1.0,77,0.00,,CLR,0.00,VWS V14.01,2013-10-30 03:25:00,
2013-10-29 20:26:00,42.8,36.1,29.95,WSW,251,1.0,2.0,77,0.00,,CLR,0.00,VWS V14.01,2013-10-30 03:26:00,
2013-10-29 20:27:00,42.6,36.2,29.95,WSW,251,1.0,2.0,78,0.00,,CLR,0.00,VWS V14.01,2013-10-30 03:27:00,
2013-10-29 20:30:00,42.6,36.2,29.94,WSW,251,1.0,2.0,78,0.00,,CLR,0.00,VWS V14.01,2013-10-30 03:30:00,
2013-10-29 20:31:00,42.6,36.2,29.94,WSW,251,0.0,2.0,78,0.00,,CLR,0.00,VWS V14.01,2013-10-30 03:31:00,
2013-10-29 20:35:00,42.5,36.5,29.94,WSW,251,1.0,2.0,79,0.00,,CLR,0.00,VWS V14.01,2013-10-30 03:35:00,
2013-10-29 20:36:00,42.5,36.5,29.94,WSW,251,2.0,2.0,79,0.00,,CLR,0.00,VWS V14.01,2013-10-30 03:36:00,
2013-10-29 20:37:00,42.5,36.5,29.94,WSW,251,1.0,2.0,79,0.00,,CLR,0.00,VWS V14.01,2013-10-30 03:37:00,
2013-10-29 20:41:00,42.3,36.3,29.94,WSW,251,0.0,0.0,79,0.00,,CLR,0.00,VWS V14.01,2013-10-30 03:41:00,
2013-10-29 20:42:00,42.3,36.3,29.94,WSW,251,0.0,0.0,79,0.00,,CLR,0.00,VWS V14.01,2013-10-30 03:42:00,
2013-10-29 20:44:00,42.3,36.3,29.94,WSW,251,0.0,0.0,79,0.00,,CLR,0.00,VWS V14.01,2013-10-30 03:44:00,
2013-10-29 20:46:00,42.3,36.3,29.94,WSW,251,0.0,0.0,79,0.00,,CLR,0.00,VWS V14.01,2013-10-30 03:46:00,
2013-10-29 20:47:00,42.3,36.6,29.94,WSW,251,0.0,0.0,80,0.00,,CLR,0.00,VWS V14.01,2013-10-30 03:47:00,
2013-10-29 20:51:00,42.2,36.5,29.94,WSW,251,0.0,0.0,80,0.00,,CLR,0.00,VWS V14.01,2013-10-30 03:51:00,
2013-10-29 20:55:00,42.2,36.5,29.94,WSW,251,0.0,0.0,80,0.00,,CLR,0.00,VWS V14.01,2013-10-30 03:55:00,
2013-10-29 20:56:00,42.2,36.5,29.94,WSW,251,0.0,0.0,80,0.00,,CLR,0.00,VWS V14.01,2013-10-30 03:56:00,
2013-10-29 20:57:00,42.2,36.5,29.94,WSW,251,0.0,0.0,80,0.00,,CLR,0.00,VWS V14.01,2013-10-30 03:57:00,
2013-10-29 20:58:00,42.1,36.4,29.94,WSW,251,0.0,0.0,80,0.00,,CLR,0.00,VWS V14.01,2013-10-30 03:58:00,
2013-10-29 21:00:00,42.1,36.7,29.94,WSW,251,0.0,0.0,81,0.00,,CLR,0.00,VWS V14.01,2013-10-30 04:00:00,
2013-10-29 21:01:00,42.1,36.7,29.95,WSW,251,0.0,0.0,81,0.00,,CLR,0.00,VWS V14.01,2013-10-30 04:01:00,
2013-10-29 21:02:00,42.1,36.7,29.95,WSW,251,0.0,0.0,81,0.00,,CLR,0.00,VWS V14.01,2013-10-30 04:02:00,
2013-10-29 21:03:00,42.1,36.7,29.95,WSW,244,0.0,0.0,81,0.00,,CLR,0.00,VWS V14.01,2013-10-30 04:03:00,
2013-10-29 21:06:00,41.9,36.5,29.95,WSW,251,0.0,0.0,81,0.00,,CLR,0.00,VWS V14.01,2013-10-30 04:06:00,
2013-10-29 21:07:00,41.9,36.5,29.95,WSW,251,0.0,0.0,81,0.00,,CLR,0.00,VWS V14.01,2013-10-30 04:07:00,
2013-10-29 21:08:00,41.9,36.5,29.95,WSW,251,0.0,0.0,81,0.00,,CLR,0.00,VWS V14.01,2013-10-30 04:08:00,
2013-10-29 21:09:00,41.9,36.5,29.95,WSW,251,0.0,0.0,81,0.00,,CLR,0.00,VWS V14.01,2013-10-30 04:09:00,
2013-10-29 21:12:00,41.9,36.5,29.95,WSW,251,0.0,0.0,81,0.00,,CLR,0.00,VWS V14.01,2013-10-30 04:12:00,
2013-10-29 21:14:00,41.8,36.4,29.95,WSW,251,0.0,1.0,81,0.00,,CLR,0.00,VWS V14.01,2013-10-30 04:14:00,
2013-10-29 21:15:00,41.8,36.4,29.95,WSW,251,0.0,1.0,81,0.00,,CLR,0.00,VWS V14.01,2013-10-30 04:15:00,
2013-10-29 21:19:00,41.6,36.2,29.95,WSW,251,1.0,2.0,81,0.00,,CLR,0.00,VWS V14.01,2013-10-30 04:19:00,
2013-10-29 21:20:00,41.6,36.2,29.95,WSW,251,1.0,2.0,81,0.00,,CLR,0.00,VWS V14.01,2013-10-30 04:20:00,
2013-10-29 21:21:00,41.5,36.1,29.95,WSW,251,1.0,2.0,81,0.00,,CLR,0.00,VWS V14.01,2013-10-30 04:21:00,
2013-10-29 21:22:00,41.5,36.1,29.95,WSW,251,1.0,2.0,81,0.00,,CLR,0.00,VWS V14.01,2013-10-30 04:22:00,
2013-10-29 21:23:00,41.5,36.1,29.95,WSW,251,1.0,2.0,81,0.00,,CLR,0.00,VWS V14.01,2013-10-30 04:23:00,
2013-10-29 21:25:00,41.3,36.2,29.95,WSW,251,1.0,2.0,82,0.00,,CLR,0.00,VWS V14.01,2013-10-30 04:25:00,
2013-10-29 21:26:00,41.3,36.2,29.95,WSW,251,1.0,2.0,82,0.00,,CLR,0.00,VWS V14.01,2013-10-30 04:26:00,
2013-10-29 21:28:00,41.3,36.2,29.95,WSW,251,1.0,2.0,82,0.00,,CLR,0.00,VWS V14.01,2013-10-30 04:28:00,
2013-10-29 21:30:00,41.2,36.1,29.96,WSW,251,1.0,2.0,82,0.00,,CLR,0.00,VWS V14.01,2013-10-30 04:30:00,
2013-10-29 21:31:00,41.2,36.1,29.96,WSW,251,1.0,2.0,82,0.00,,CLR,0.00,VWS V14.01,2013-10-30 04:31:00,
2013-10-29 21:36:00,41.2,36.4,29.96,WSW,251,0.0,2.0,83,0.00,,CLR,0.00,VWS V14.01,2013-10-30 04:36:00,
2013-10-29 21:37:00,41.2,36.4,29.96,WSW,251,1.0,2.0,83,0.00,,CLR,0.00,VWS V14.01,2013-10-30 04:37:00,
2013-10-29 21:38:00,41.1,36.3,29.96,WSW,251,1.0,2.0,83,0.00,,CLR,0.00,VWS V14.01,2013-10-30 04:38:00,
2013-10-29 21:41:00,41.1,36.6,29.96,WSW,251,1.0,1.0,84,0.00,,CLR,0.00,VWS V14.01,2013-10-30 04:41:00,
2013-10-29 21:42:00,41.1,36.6,29.96,WSW,251,0.0,1.0,84,0.00,,CLR,0.00,VWS V14.01,2013-10-30 04:42:00,
2013-10-29 21:44:00,41.1,36.6,29.96,WSW,251,1.0,1.0,84,0.00,,CLR,0.00,VWS V14.01,2013-10-30 04:44:00,
2013-10-29 21:46:00,41.1,36.6,29.96,WSW,251,1.0,2.0,84,0.00,,CLR,0.00,VWS V14.01,2013-10-30 04:46:00,
2013-10-29 21:47:00,41.1,36.6,29.96,WSW,251,1.0,2.0,84,0.00,,CLR,0.00,VWS V14.01,2013-10-30 04:47:00,
2013-10-29 21:48:00,41.1,36.6,29.96,WSW,251,1.0,2.0,84,0.00,,CLR,0.00,VWS V14.01,2013-10-30 04:48:00,
2013-10-29 21:50:00,41.1,36.6,29.96,WSW,251,2.0,2.0,84,0.00,,CLR,0.00,VWS V14.01,2013-10-30 04:50:00,
2013-10-29 21:52:00,41.1,36.6,29.96,WSW,251,1.0,2.0,84,0.00,,CLR,0.00,VWS V14.01,2013-10-30 04:52:00,
2013-10-29 21:53:00,40.9,36.5,29.96,WSW,251,1.0,2.0,84,0.00,,CLR,0.00,VWS V14.01,2013-10-30 04:53:00,
2013-10-29 21:54:00,40.9,36.5,29.96,WSW,251,1.0,2.0,84,0.00,,CLR,0.00,VWS V14.01,2013-10-30 04:54:00,
2013-10-29 21:55:00,40.9,36.5,29.96,WSW,251,0.0,2.0,84,0.00,,CLR,0.00,VWS V14.01,2013-10-30 04:55:00,
2013-10-29 21:56:00,40.9,36.5,29.96,WSW,251,0.0,0.0,84,0.00,,CLR,0.00,VWS V14.01,2013-10-30 04:56:00,
2013-10-29 21:57:00,40.9,36.5,29.96,WSW,251,1.0,1.0,84,0.00,,CLR,0.00,VWS V14.01,2013-10-30 04:57:00,
2013-10-29 22:01:00,40.9,36.5,29.96,WSW,251,2.0,2.0,84,0.00,,CLR,0.00,VWS V14.01,2013-10-30 05:01:00,
2013-10-29 22:02:00,40.9,36.5,29.96,WSW,251,0.0,2.0,84,0.00,,CLR,0.00,VWS V14.01,2013-10-30 05:02:00,
2013-10-29 22:04:00,40.9,36.5,29.96,WSW,251,1.0,2.0,84,0.00,,CLR,0.00,VWS V14.01,2013-10-30 05:04:00,
2013-10-29 22:05:00,40.8,36.3,29.96,WSW,251,2.0,2.0,84,0.00,,CLR,0.00,VWS V14.01,2013-10-30 05:05:00,
2013-10-29 22:06:00,40.8,36.3,29.96,WSW,251,1.0,2.0,84,0.00,,CLR,0.00,VWS V14.01,2013-10-30 05:06:00,
2013-10-29 22:09:00,40.8,36.3,29.96,WSW,244,1.0,2.0,84,0.00,,CLR,0.00,VWS V14.01,2013-10-30 05:09:00,
2013-10-29 22:11:00,40.8,36.7,29.96,WSW,251,1.0,2.0,85,0.00,,CLR,0.00,VWS V14.01,2013-10-30 05:11:00,
2013-10-29 22:12:00,40.8,36.7,29.96,WSW,251,2.0,2.0,85,0.00,,CLR,0.00,VWS V14.01,2013-10-30 05:12:00,
2013-10-29 22:13:00,40.6,36.5,29.96,WSW,251,0.0,2.0,85,0.00,,CLR,0.00,VWS V14.01,2013-10-30 05:13:00,
2013-10-29 22:16:00,40.6,36.5,29.96,WSW,251,2.0,2.0,85,0.00,,CLR,0.00,VWS V14.01,2013-10-30 05:16:00,
2013-10-29 22:17:00,40.6,36.5,29.96,WSW,251,1.0,2.0,85,0.00,,CLR,0.00,VWS V14.01,2013-10-30 05:17:00,
2013-10-29 22:21:00,40.5,36.3,29.96,WSW,251,1.0,2.0,85,0.00,,CLR,0.00,VWS V14.01,2013-10-30 05:21:00,
2013-10-29 22:22:00,40.5,36.3,29.96,WSW,251,1.0,1.0,85,0.00,,CLR,0.00,VWS V14.01,2013-10-30 05:22:00,
2013-10-29 22:25:00,40.5,36.3,29.96,WSW,251,1.0,2.0,85,0.00,,CLR,0.00,VWS V14.01,2013-10-30 05:25:00,
2013-10-29 22:26:00,40.5,36.3,29.96,WSW,251,0.0,1.0,85,0.00,,CLR,0.00,VWS V14.01,2013-10-30 05:26:00,
2013-10-29 22:27:00,40.3,36.2,29.96,WSW,251,1.0,2.0,85,0.00,,CLR,0.00,VWS V14.01,2013-10-30 05:27:00,
2013-10-29 22:29:00,40.3,36.2,29.96,WSW,251,1.0,2.0,85,0.00,,CLR,0.00,VWS V14.01,2013-10-30 05:29:00,
2013-10-29 22:31:00,40.3,36.2,29.96,WSW,251,1.0,2.0,85,0.00,,CLR,0.00,VWS V14.01,2013-10-30 05:31:00,
2013-10-29 22:32:00,40.3,36.2,29.96,WSW,251,0.0,1.0,85,0.00,,CLR,0.00,VWS V14.01,2013-10-30 05:32:00,
2013-10-29 22:33:00,40.3,36.2,29.96,WSW,251,0.0,1.0,85,0.00,,CLR,0.00,VWS V14.01,2013-10-30 05:33:00,
2013-10-29 22:36:00,40.2,36.1,29.96,WSW,251,0.0,1.0,85,0.00,,CLR,0.00,VWS V14.01,2013-10-30 05:36:00,
2013-10-29 22:38:00,40.2,36.1,29.96,WSW,251,0.0,0.0,85,0.00,,CLR,0.00,VWS V14.01,2013-10-30 05:38:00,
2013-10-29 22:39:00,40.2,36.1,29.96,WSW,251,0.0,0.0,85,0.00,,CLR,0.00,VWS V14.01,2013-10-30 05:39:00,
2013-10-29 22:40:00,40.2,36.1,29.96,WSW,251,0.0,0.0,85,0.00,,CLR,0.00,VWS V14.01,2013-10-30 05:40:00,
2013-10-29 22:41:00,40.2,36.1,29.96,WSW,251,0.0,0.0,85,0.00,,CLR,0.00,VWS V14.01,2013-10-30 05:41:00,
2013-10-29 22:42:00,40.2,36.1,29.96,WSW,251,0.0,0.0,85,0.00,,CLR,0.00,VWS V14.01,2013-10-30 05:42:00,
2013-10-29 22:45:00,40.1,36.0,29.96,WSW,251,0.0,0.0,85,0.00,,CLR,0.00,VWS V14.01,2013-10-30 05:45:00,
2013-10-29 22:46:00,40.1,36.0,29.96,WSW,251,0.0,0.0,85,0.00,,CLR,0.00,VWS V14.01,2013-10-30 05:46:00,
2013-10-29 22:49:00,40.1,36.0,29.96,WSW,251,0.0,2.0,85,0.00,,CLR,0.00,VWS V14.01,2013-10-30 05:49:00,
2013-10-29 22:51:00,40.1,36.0,29.96,WSW,251,0.0,2.0,85,0.00,,CLR,0.00,VWS V14.01,2013-10-30 05:51:00,
2013-10-29 22:52:00,40.1,36.0,29.96,WSW,251,0.0,0.0,85,0.00,,CLR,0.00,VWS V14.01,2013-10-30 05:52:00,
2013-10-29 22:54:00,40.2,36.1,29.96,WSW,251,0.0,0.0,85,0.00,,CLR,0.00,VWS V14.01,2013-10-30 05:54:00,
2013-10-29 22:55:00,40.2,36.1,29.96,WSW,251,0.0,0.0,85,0.00,,CLR,0.00,VWS V14.01,2013-10-30 05:55:00,
2013-10-29 22:56:00,40.2,36.1,29.96,WSW,251,0.0,0.0,85,0.00,,CLR,0.00,VWS V14.01,2013-10-30 05:56:00,
2013-10-29 23:00:00,40.1,36.0,29.96,WSW,251,0.0,0.0,85,0.00,,CLR,0.00,VWS V14.01,2013-10-30 06:00:00,
2013-10-29 23:01:00,40.1,36.0,29.96,WSW,251,0.0,0.0,85,0.00,,CLR,0.00,VWS V14.01,2013-10-30 06:01:00,
2013-10-29 23:06:00,40.1,36.0,29.96,WSW,251,0.0,0.0,85,0.00,,CLR,0.00,VWS V14.01,2013-10-30 06:06:00,
2013-10-29 23:08:00,40.1,36.0,29.96,WSW,251,0.0,0.0,85,0.00,,CLR,0.00,VWS V14.01,2013-10-30 06:08:00,
2013-10-29 23:09:00,40.1,36.0,29.96,WSW,251,0.0,0.0,85,0.00,,CLR,0.00,VWS V14.01,2013-10-30 06:09:00,
2013-10-29 23:11:00,40.1,36.0,29.96,WSW,251,0.0,0.0,85,0.00,,CLR,0.00,VWS V14.01,2013-10-30 06:11:00,
2013-10-29 23:13:00,40.1,36.0,29.96,WSW,251,0.0,0.0,85,0.00,,CLR,0.00,VWS V14.01,2013-10-30 06:13:00,
2013-10-29 23:14:00,40.1,36.0,29.96,WSW,251,0.0,0.0,85,0.00,,CLR,0.00,VWS V14.01,2013-10-30 06:14:00,
2013-10-29 23:15:00,40.1,36.0,29.96,WSW,251,0.0,0.0,85,0.00,,CLR,0.00,VWS V14.01,2013-10-30 06:15:00,
2013-10-29 23:17:00,40.1,36.0,29.95,WSW,251,0.0,0.0,85,0.00,,CLR,0.00,VWS V14.01,2013-10-30 06:17:00,
2013-10-29 23:19:00,39.9,35.8,29.95,WSW,251,0.0,0.0,85,0.00,,CLR,0.00,VWS V14.01,2013-10-30 06:19:00,
2013-10-29 23:20:00,39.9,35.8,29.95,WSW,251,0.0,0.0,85,0.00,,CLR,0.00,VWS V14.01,2013-10-30 06:20:00,
2013-10-29 23:21:00,39.9,35.8,29.95,WSW,251,0.0,0.0,85,0.00,,CLR,0.00,VWS V14.01,2013-10-30 06:21:00,
2013-10-29 23:24:00,39.9,35.8,29.95,WSW,251,0.0,0.0,85,0.00,,CLR,0.00,VWS V14.01,2013-10-30 06:24:00,
2013-10-29 23:26:00,39.9,35.8,29.95,WSW,251,0.0,0.0,85,0.00,,CLR,0.00,VWS V14.01,2013-10-30 06:26:00,
2013-10-29 23:28:00,39.9,35.8,29.95,WSW,251,0.0,0.0,85,0.00,,CLR,0.00,VWS V14.01,2013-10-30 06:28:00,
2013-10-29 23:31:00,39.9,35.8,29.95,WSW,251,0.0,0.0,85,0.00,,CLR,0.00,VWS V14.01,2013-10-30 06:31:00,
2013-10-29 23:33:00,39.9,35.8,29.95,WSW,251,0.0,0.0,85,0.00,,CLR,0.00,VWS V14.01,2013-10-30 06:33:00,
2013-10-29 23:35:00,39.9,35.8,29.95,WSW,251,0.0,0.0,85,0.00,,CLR,0.00,VWS V14.01,2013-10-30 06:35:00,
2013-10-29 23:36:00,39.9,35.8,29.95,WSW,251,0.0,0.0,85,0.00,,CLR,0.00,VWS V14.01,2013-10-30 06:36:00,
2013-10-29 23:39:00,39.8,35.7,29.95,WSW,251,0.0,0.0,85,0.00,,CLR,0.00,VWS V14.01,2013-10-30 06:39:00,
2013-10-29 23:41:00,39.8,35.7,29.95,WSW,251,0.0,0.0,85,0.00,,CLR,0.00,VWS V14.01,2013-10-30 06:41:00,
2013-10-29 23:43:00,39.8,35.7,29.95,WSW,251,0.0,0.0,85,0.00,,CLR,0.00,VWS V14.01,2013-10-30 06:43:00,
2013-10-29 23:44:00,39.8,35.7,29.95,WSW,251,0.0,0.0,85,0.00,,CLR,0.00,VWS V14.01,2013-10-30 06:44:00,
2013-10-29 23:45:00,39.8,35.7,29.95,WSW,251,0.0,0.0,85,0.00,,CLR,0.00,VWS V14.01,2013-10-30 06:45:00,
2013-10-29 23:46:00,39.8,35.7,29.95,SSW,205,0.0,0.0,85,0.00,,CLR,0.00,VWS V14.01,2013-10-30 06:46:00,
2013-10-29 23:47:00,39.8,35.7,29.95,SSW,203,0.0,0.0,85,0.00,,CLR,0.00,VWS V14.01,2013-10-30 06:47:00,
2013-10-29 23:50:00,39.8,35.7,29.95,South,185,0.0,0.0,85,0.00,,CLR,0.00,VWS V14.01,2013-10-30 06:50:00,
2013-10-29 23:51:00,39.8,35.7,29.95,South,185,0.0,0.0,85,0.00,,CLR,0.00,VWS V14.01,2013-10-30 06:51:00,
2013-10-29 23:52:00,39.8,35.7,29.95,South,185,0.0,0.0,85,0.00,,CLR,0.00,VWS V14.01,2013-10-30 06:52:00,
2013-10-29 23:53:00,39.8,35.7,29.95,South,185,0.0,0.0,85,0.00,,CLR,0.00,VWS V14.01,2013-10-30 06:53:00,
2013-10-29 23:54:00,39.8,35.7,29.95,South,185,0.0,0.0,85,0.00,,CLR,0.00,VWS V14.01,2013-10-30 06:54:00,
2013-10-29 23:57:00,39.6,35.5,29.95,South,185,0.0,0.0,85,0.00,,CLR,0.00,VWS V14.01,2013-10-30 06:57:00,
2013-10-29 23:58:00,39.6,35.5,29.95,South,185,0.0,0.0,85,0.00,,CLR,0.00,VWS V14.01,2013-10-30 06:58:00,
2013-10-29 23:59:00,39.6,35.5,29.95,South,185,0.0,0.0,85,0.00,,CLR,0.00,VWS V14.01,2013-10-30 06:59:00,